Observation data for Sterling City on 06/13/2019      Previous  Date       Current Mesonet Observations  Soil Data  Daily Summary Page  Observations in Plain Language
KSC1 130500Z 06003KT 21/14 A3017 RMK A01 T02100137  RH  063%=      5-min Rain = 0
KSC1 130501Z 06003KT 21/14 A3017 RMK A01 T02090136  RH  063%=      5-min Rain = 0
KSC1 130502Z 07003KT 21/13 A3017 RMK A01 T02080133  RH  062%=      5-min Rain = 0
KSC1 130503Z 07003KT 21/14 A3017 RMK A01 T02090135  RH  063%=      5-min Rain = 0
KSC1 130504Z 07003KT 21/13 A3017 RMK A01 T02080133  RH  062%=      5-min Rain = 0
KSC1 130505Z 07003KT 21/13 A3017 RMK A01 T02080132  RH  062%=      5-min Rain = 0
KSC1 130506Z 07003KT 21/13 A3017 RMK A01 T02080131  RH  061%=      5-min Rain = 0
KSC1 130507Z 07003KT 21/13 A3017 RMK A01 T02080131  RH  061%=      5-min Rain = 0
KSC1 130508Z 07002KT 21/13 A3017 RMK A01 T02080130  RH  061%=      5-min Rain = 0
KSC1 130509Z 07002KT 21/13 A3017 RMK A01 T02080130  RH  061%=      5-min Rain = 0
KSC1 130510Z 07002KT 21/13 A3017 RMK A01 T02080130  RH  061%=      5-min Rain = 0
KSC1 130511Z 07002KT 21/13 A3018 RMK A01 T02080129  RH  061%=      5-min Rain = 0
KSC1 130512Z 07002KT 21/13 A3018 RMK A01 T02070129  RH  061%=      5-min Rain = 0
KSC1 130513Z 08002KT 21/13 A3018 RMK A01 T02070129  RH  061%=      5-min Rain = 0
KSC1 130514Z 08003KT 21/13 A3018 RMK A01 T02070129  RH  061%=      5-min Rain = 0
KSC1 130515Z 08003KT 21/13 A3018 RMK A01 T02060129  RH  061%=      5-min Rain = 0
KSC1 130516Z 08003KT 21/13 A3018 RMK A01 T02060129  RH  061%=      5-min Rain = 0
KSC1 130517Z 08003KT 21/13 A3018 RMK A01 T02050130  RH  062%=      5-min Rain = 0
KSC1 130518Z 07003KT 21/13 A3018 RMK A01 T02050130  RH  062%=      5-min Rain = 0
KSC1 130519Z 07003KT 20/13 A3018 RMK A01 T02040129  RH  062%=      5-min Rain = 0
KSC1 130520Z 07003KT 20/13 A3018 RMK A01 T02040128  RH  062%=      5-min Rain = 0
KSC1 130521Z 08003KT 20/13 A3018 RMK A01 T02030127  RH  062%=      5-min Rain = 0
KSC1 130522Z 08003KT 20/13 A3018 RMK A01 T02030129  RH  062%=      5-min Rain = 0
KSC1 130523Z 08002KT 20/13 A3018 RMK A01 T02030131  RH  063%=      5-min Rain = 0
KSC1 130524Z 09003KT 20/13 A3018 RMK A01 T02010131  RH  064%=      5-min Rain = 0
KSC1 130525Z 09002KT 20/13 A3018 RMK A01 T02010130  RH  064%=      5-min Rain = 0
KSC1 130526Z 09002KT 20/13 A3018 RMK A01 T02000130  RH  064%=      5-min Rain = 0
KSC1 130527Z 09002KT 20/13 A3018 RMK A01 T02000128  RH  063%=      5-min Rain = 0
KSC1 130528Z 10003KT 20/13 A3018 RMK A01 T01990129  RH  064%=      5-min Rain = 0
KSC1 130529Z 10003KT 20/13 A3018 RMK A01 T01990129  RH  064%=      5-min Rain = 0
KSC1 130530Z 10003KT 20/13 A3018 RMK A01 T01990128  RH  064%=      5-min Rain = 0
KSC1 130531Z 10003KT 20/13 A3018 RMK A01 T01990128  RH  064%=      5-min Rain = 0
KSC1 130532Z 10003KT 20/13 A3018 RMK A01 T01990128  RH  064%=      5-min Rain = 0
KSC1 130533Z 10003KT 20/13 A3018 RMK A01 T01990129  RH  064%=      5-min Rain = 0
KSC1 130534Z 10003KT 20/13 A3018 RMK A01 T01980129  RH  064%=      5-min Rain = 0
KSC1 130535Z 10004KT 20/13 A3018 RMK A01 T01980130  RH  065%=      5-min Rain = 0
KSC1 130536Z 10003KT 20/13 A3018 RMK A01 T01980130  RH  065%=      5-min Rain = 0
KSC1 130537Z 10003KT 20/13 A3018 RMK A01 T01980130  RH  065%=      5-min Rain = 0
KSC1 130538Z 10003KT 20/13 A3018 RMK A01 T01980130  RH  065%=      5-min Rain = 0
KSC1 130539Z 10003KT 20/13 A3018 RMK A01 T01970130  RH  065%=      5-min Rain = 0
KSC1 130540Z 10003KT 20/13 A3018 RMK A01 T01970129  RH  065%=      5-min Rain = 0
KSC1 130541Z 10003KT 20/13 A3018 RMK A01 T01970128  RH  064%=      5-min Rain = 0
KSC1 130542Z 10003KT 20/13 A3018 RMK A01 T01970128  RH  064%=      5-min Rain = 0
KSC1 130543Z 10003KT 20/13 A3018 RMK A01 T01970128  RH  065%=      5-min Rain = 0
KSC1 130544Z 10003KT 20/13 A3018 RMK A01 T01970129  RH  065%=      5-min Rain = 0
KSC1 130545Z 10004KT 20/13 A3018 RMK A01 T01970129  RH  065%=      5-min Rain = 0
KSC1 130546Z 09003KT 20/13 A3018 RMK A01 T01970130  RH  065%=      5-min Rain = 0
KSC1 130547Z 10004KT 20/13 A3018 RMK A01 T01970130  RH  065%=      5-min Rain = 0
KSC1 130548Z 10004KT 20/13 A3018 RMK A01 T01970130  RH  065%=      5-min Rain = 0
KSC1 130549Z 10004KT 20/13 A3018 RMK A01 T01970130  RH  065%=      5-min Rain = 0
KSC1 130550Z 10004KT 20/13 A3018 RMK A01 T01960130  RH  066%=      5-min Rain = 0
KSC1 130551Z 09004KT 20/13 A3018 RMK A01 T01960130  RH  066%=      5-min Rain = 0
KSC1 130552Z 10004KT 20/13 A3018 RMK A01 T01960131  RH  066%=      5-min Rain = 0
KSC1 130553Z 10004KT 20/13 A3018 RMK A01 T01950131  RH  066%=      5-min Rain = 0
KSC1 130554Z 09004KT 20/13 A3018 RMK A01 T01950131  RH  066%=      5-min Rain = 0
KSC1 130555Z 09004KT 20/13 A3018 RMK A01 T01950131  RH  066%=      5-min Rain = 0
KSC1 130556Z 09004KT 20/13 A3018 RMK A01 T01950131  RH  066%=      5-min Rain = 0
KSC1 130557Z 09004KT 20/13 A3018 RMK A01 T01950130  RH  066%=      5-min Rain = 0
KSC1 130558Z 09004KT 20/13 A3018 RMK A01 T01950130  RH  066%=      5-min Rain = 0
KSC1 130559Z 09004KT 20/13 A3018 RMK A01 T01950129  RH  066%=      5-min Rain = 0
KSC1 130600Z 09004KT 20/13 A3018 RMK A01 T01950129  RH  065%=      5-min Rain = 0
KSC1 130601Z 09004KT 20/13 A3018 RMK A01 T01950129  RH  065%=      5-min Rain = 0
KSC1 130602Z 09004KT 20/13 A3018 RMK A01 T01950129  RH  066%=      5-min Rain = 0
KSC1 130603Z 09004KT 20/13 A3018 RMK A01 T01950128  RH  065%=      5-min Rain = 0
KSC1 130604Z 09004KT 20/13 A3018 RMK A01 T01950128  RH  065%=      5-min Rain = 0
KSC1 130605Z 09004KT 19/13 A3018 RMK A01 T01940127  RH  065%=      5-min Rain = 0
KSC1 130606Z 09004KT 20/13 A3018 RMK A01 T01950128  RH  065%=      5-min Rain = 0
KSC1 130607Z 09004KT 19/13 A3018 RMK A01 T01940127  RH  065%=      5-min Rain = 0
KSC1 130608Z 09003KT 19/13 A3018 RMK A01 T01940127  RH  065%=      5-min Rain = 0
KSC1 130609Z 09003KT 19/13 A3018 RMK A01 T01940127  RH  065%=      5-min Rain = 0
KSC1 130610Z 10004KT 19/13 A3018 RMK A01 T01940127  RH  065%=      5-min Rain = 0
KSC1 130611Z 10004KT 19/13 A3018 RMK A01 T01940127  RH  065%=      5-min Rain = 0
KSC1 130612Z 10004KT 19/13 A3018 RMK A01 T01940128  RH  065%=      5-min Rain = 0
KSC1 130613Z 10004KT 19/13 A3018 RMK A01 T01940128  RH  065%=      5-min Rain = 0
KSC1 130614Z 10005KT 19/13 A3018 RMK A01 T01940128  RH  065%=      5-min Rain = 0
KSC1 130615Z 10005KT 19/13 A3018 RMK A01 T01940128  RH  065%=      5-min Rain = 0
KSC1 130616Z 10005KT 19/13 A3018 RMK A01 T01940128  RH  065%=      5-min Rain = 0
KSC1 130617Z 09005KT 20/13 A3018 RMK A01 T01950128  RH  065%=      5-min Rain = 0
KSC1 130618Z 09005KT 20/13 A3018 RMK A01 T01960128  RH  065%=      5-min Rain = 0
KSC1 130619Z 09005KT 20/13 A3018 RMK A01 T01970127  RH  064%=      5-min Rain = 0
KSC1 130620Z 09005KT 20/13 A3018 RMK A01 T01980126  RH  063%=      5-min Rain = 0
KSC1 130621Z 09005KT 20/13 A3018 RMK A01 T01990126  RH  063%=      5-min Rain = 0
KSC1 130622Z 09004KT 20/13 A3018 RMK A01 T02000125  RH  062%=      5-min Rain = 0
KSC1 130623Z 09004KT 20/12 A3018 RMK A01 T02010124  RH  061%=      5-min Rain = 0
KSC1 130624Z 09004KT 20/12 A3018 RMK A01 T02020124  RH  061%=      5-min Rain = 0
KSC1 130625Z 09004KT 20/12 A3018 RMK A01 T02020124  RH  061%=      5-min Rain = 0
KSC1 130626Z 08004KT 20/12 A3017 RMK A01 T02030123  RH  060%=      5-min Rain = 0
KSC1 130627Z 09004KT 20/12 A3017 RMK A01 T02040123  RH  060%=      5-min Rain = 0
KSC1 130628Z 08005KT 21/12 A3017 RMK A01 T02050122  RH  059%=      5-min Rain = 0
KSC1 130629Z 09004KT 21/12 A3017 RMK A01 T02050122  RH  059%=      5-min Rain = 0
KSC1 130630Z 09004KT 21/12 A3017 RMK A01 T02060122  RH  059%=      5-min Rain = 0
KSC1 130631Z 09005KT 21/12 A3017 RMK A01 T02060122  RH  059%=      5-min Rain = 0
KSC1 130632Z 09005KT 21/12 A3017 RMK A01 T02060123  RH  059%=      5-min Rain = 0
KSC1 130633Z 09004KT 21/12 A3017 RMK A01 T02060123  RH  059%=      5-min Rain = 0
KSC1 130634Z 09004KT 21/12 A3017 RMK A01 T02060123  RH  059%=      5-min Rain = 0
KSC1 130635Z 09005KT 21/12 A3017 RMK A01 T02060123  RH  059%=      5-min Rain = 0
KSC1 130636Z 09004KT 21/12 A3017 RMK A01 T02060123  RH  059%=      5-min Rain = 0
KSC1 130637Z 09004KT 21/12 A3017 RMK A01 T02060123  RH  059%=      5-min Rain = 0
KSC1 130638Z 09003KT 21/12 A3017 RMK A01 T02060122  RH  059%=      5-min Rain = 0
KSC1 130639Z 08003KT 21/12 A3017 RMK A01 T02060122  RH  058%=      5-min Rain = 0
KSC1 130640Z 09004KT 21/12 A3017 RMK A01 T02070122  RH  058%=      5-min Rain = 0
KSC1 130641Z 09003KT 21/12 A3017 RMK A01 T02070122  RH  058%=      5-min Rain = 0
KSC1 130642Z 09004KT 21/12 A3017 RMK A01 T02070122  RH  058%=      5-min Rain = 0
KSC1 130643Z 09003KT 21/12 A3017 RMK A01 T02070122  RH  058%=      5-min Rain = 0
KSC1 130644Z 09004KT 21/12 A3017 RMK A01 T02070123  RH  058%=      5-min Rain = 0
KSC1 130645Z 10004KT 21/12 A3017 RMK A01 T02070123  RH  059%=      5-min Rain = 0
KSC1 130646Z 10004KT 21/12 A3017 RMK A01 T02060124  RH  059%=      5-min Rain = 0
KSC1 130647Z 10004KT 21/12 A3017 RMK A01 T02060124  RH  059%=      5-min Rain = 0
KSC1 130648Z 09004KT 21/13 A3017 RMK A01 T02050125  RH  060%=      5-min Rain = 0
KSC1 130649Z 09004KT 20/12 A3017 RMK A01 T02040124  RH  060%=      5-min Rain = 0
KSC1 130650Z 09004KT 20/12 A3017 RMK A01 T02030124  RH  060%=      5-min Rain = 0
KSC1 130651Z 09004KT 20/12 A3017 RMK A01 T02030124  RH  060%=      5-min Rain = 0
KSC1 130652Z 09004KT 20/12 A3017 RMK A01 T02030123  RH  060%=      5-min Rain = 0
KSC1 130653Z 09004KT 20/12 A3017 RMK A01 T02020123  RH  060%=      5-min Rain = 0
KSC1 130654Z 09004KT 20/12 A3017 RMK A01 T02020123  RH  060%=      5-min Rain = 0
KSC1 130655Z 09004KT 20/12 A3017 RMK A01 T02020123  RH  060%=      5-min Rain = 0
KSC1 130656Z 09004KT 20/12 A3017 RMK A01 T02010123  RH  060%=      5-min Rain = 0
KSC1 130657Z 09004KT 20/12 A3017 RMK A01 T02010122  RH  061%=      5-min Rain = 0
KSC1 130658Z 09004KT 20/12 A3017 RMK A01 T02000122  RH  061%=      5-min Rain = 0
KSC1 130659Z 09004KT 20/12 A3017 RMK A01 T02000122  RH  061%=      5-min Rain = 0
KSC1 130700Z 09005KT 20/12 A3017 RMK A01 T01990122  RH  061%=      5-min Rain = 0
KSC1 130701Z 08005KT 20/12 A3017 RMK A01 T01990122  RH  061%=      5-min Rain = 0
KSC1 130702Z 09005KT 20/12 A3017 RMK A01 T01980121  RH  061%=      5-min Rain = 0
KSC1 130703Z 09005KT 20/12 A3017 RMK A01 T01970121  RH  061%=      5-min Rain = 0
KSC1 130704Z 09005KT 20/12 A3017 RMK A01 T01970121  RH  062%=      5-min Rain = 0
KSC1 130705Z 09004KT 20/12 A3017 RMK A01 T01960121  RH  062%=      5-min Rain = 0
KSC1 130706Z 09004KT 20/12 A3017 RMK A01 T01950121  RH  062%=      5-min Rain = 0
KSC1 130707Z 09004KT 20/12 A3017 RMK A01 T01950122  RH  063%=      5-min Rain = 0
KSC1 130708Z 09004KT 19/12 A3017 RMK A01 T01940122  RH  063%=      5-min Rain = 0
KSC1 130709Z 08004KT 19/12 A3017 RMK A01 T01930122  RH  063%=      5-min Rain = 0
KSC1 130710Z 08003KT 19/12 A3017 RMK A01 T01930122  RH  064%=      5-min Rain = 0
KSC1 130711Z 08003KT 19/12 A3017 RMK A01 T01920122  RH  064%=      5-min Rain = 0
KSC1 130712Z 09003KT 19/12 A3017 RMK A01 T01910122  RH  064%=      5-min Rain = 0
KSC1 130713Z 08003KT 19/12 A3016 RMK A01 T01910122  RH  064%=      5-min Rain = 0
KSC1 130714Z 08003KT 19/12 A3016 RMK A01 T01900122  RH  064%=      5-min Rain = 0
KSC1 130715Z 09002KT 19/12 A3016 RMK A01 T01900122  RH  065%=      5-min Rain = 0
KSC1 130716Z 09003KT 19/12 A3016 RMK A01 T01900122  RH  065%=      5-min Rain = 0
KSC1 130717Z 10003KT 19/12 A3016 RMK A01 T01890121  RH  065%=      5-min Rain = 0
KSC1 130718Z 10003KT 19/12 A3016 RMK A01 T01890121  RH  065%=      5-min Rain = 0
KSC1 130719Z 10003KT 19/12 A3016 RMK A01 T01880122  RH  065%=      5-min Rain = 0
KSC1 130720Z 11003KT 19/12 A3016 RMK A01 T01880121  RH  065%=      5-min Rain = 0
KSC1 130721Z 11003KT 19/12 A3016 RMK A01 T01880121  RH  065%=      5-min Rain = 0
KSC1 130722Z 12003KT 19/12 A3016 RMK A01 T01880121  RH  065%=      5-min Rain = 0
KSC1 130723Z 12004KT 19/12 A3017 RMK A01 T01870122  RH  066%=      5-min Rain = 0
KSC1 130724Z 13003KT 19/12 A3017 RMK A01 T01860123  RH  067%=      5-min Rain = 0
KSC1 130725Z 13003KT 18/12 A3016 RMK A01 T01840122  RH  067%=      5-min Rain = 0
KSC1 130726Z 13003KT 18/12 A3016 RMK A01 T01830122  RH  067%=      5-min Rain = 0
KSC1 130727Z 14003KT 18/12 A3016 RMK A01 T01820122  RH  068%=      5-min Rain = 0
KSC1 130728Z 13003KT 18/12 A3016 RMK A01 T01820122  RH  068%=      5-min Rain = 0
KSC1 130729Z 13003KT 18/12 A3016 RMK A01 T01810123  RH  068%=      5-min Rain = 0
KSC1 130730Z 13003KT 18/12 A3016 RMK A01 T01810123  RH  069%=      5-min Rain = 0
KSC1 130731Z 13002KT 18/12 A3016 RMK A01 T01800124  RH  069%=      5-min Rain = 0
KSC1 130732Z 13003KT 18/12 A3016 RMK A01 T01800124  RH  070%=      5-min Rain = 0
KSC1 130733Z 12002KT 18/12 A3016 RMK A01 T01790124  RH  070%=      5-min Rain = 0
KSC1 130734Z 12002KT 18/12 A3016 RMK A01 T01780124  RH  071%=      5-min Rain = 0
KSC1 130735Z 12003KT 18/12 A3016 RMK A01 T01770124  RH  071%=      5-min Rain = 0
KSC1 130736Z 12003KT 18/12 A3016 RMK A01 T01770124  RH  071%=      5-min Rain = 0
KSC1 130737Z 12003KT 18/12 A3016 RMK A01 T01760124  RH  071%=      5-min Rain = 0
KSC1 130738Z 12003KT 18/12 A3016 RMK A01 T01760124  RH  071%=      5-min Rain = 0
KSC1 130739Z 12003KT 18/12 A3016 RMK A01 T01750124  RH  072%=      5-min Rain = 0
KSC1 130740Z 12003KT 18/12 A3016 RMK A01 T01750124  RH  072%=      5-min Rain = 0
KSC1 130741Z 12004KT 17/12 A3016 RMK A01 T01740124  RH  072%=      5-min Rain = 0
KSC1 130742Z 12003KT 17/13 A3016 RMK A01 T01740125  RH  073%=      5-min Rain = 0
KSC1 130743Z 12003KT 17/13 A3016 RMK A01 T01730125  RH  073%=      5-min Rain = 0
KSC1 130744Z 12003KT 17/13 A3016 RMK A01 T01720125  RH  074%=      5-min Rain = 0
KSC1 130745Z 12003KT 17/13 A3016 RMK A01 T01720125  RH  074%=      5-min Rain = 0
KSC1 130746Z 12004KT 17/13 A3016 RMK A01 T01710125  RH  074%=      5-min Rain = 0
KSC1 130747Z 12004KT 17/13 A3016 RMK A01 T01710125  RH  074%=      5-min Rain = 0
KSC1 130748Z 12004KT 17/12 A3016 RMK A01 T01700124  RH  074%=      5-min Rain = 0
KSC1 130749Z 12004KT 17/12 A3016 RMK A01 T01700124  RH  074%=      5-min Rain = 0
KSC1 130750Z 12003KT 17/12 A3016 RMK A01 T01700124  RH  074%=      5-min Rain = 0
KSC1 130751Z 12003KT 17/12 A3016 RMK A01 T01700124  RH  074%=      5-min Rain = 0
KSC1 130752Z 12003KT 17/12 A3016 RMK A01 T01700124  RH  074%=      5-min Rain = 0
KSC1 130753Z 11003KT 17/12 A3016 RMK A01 T01700124  RH  074%=      5-min Rain = 0
KSC1 130754Z 11003KT 17/12 A3016 RMK A01 T01700124  RH  074%=      5-min Rain = 0
KSC1 130755Z 11002KT 17/12 A3016 RMK A01 T01700124  RH  075%=      5-min Rain = 0
KSC1 130756Z 12002KT 17/12 A3016 RMK A01 T01690124  RH  075%=      5-min Rain = 0
KSC1 130757Z 12002KT 17/12 A3016 RMK A01 T01690124  RH  075%=      5-min Rain = 0
KSC1 130758Z 12002KT 17/13 A3016 RMK A01 T01680125  RH  075%=      5-min Rain = 0
KSC1 130759Z 11002KT 17/12 A3016 RMK A01 T01680124  RH  075%=      5-min Rain = 0
KSC1 130800Z 11002KT 17/13 A3016 RMK A01 T01680125  RH  076%=      5-min Rain = 0
KSC1 130801Z 10002KT 17/13 A3016 RMK A01 T01680125  RH  076%=      5-min Rain = 0
KSC1 130802Z 10002KT 17/12 A3016 RMK A01 T01680124  RH  075%=      5-min Rain = 0
KSC1 130803Z 10002KT 17/12 A3016 RMK A01 T01670124  RH  075%=      5-min Rain = 0
KSC1 130804Z 10002KT 17/13 A3016 RMK A01 T01670125  RH  076%=      5-min Rain = 0
KSC1 130805Z 10003KT 17/13 A3016 RMK A01 T01670125  RH  076%=      5-min Rain = 0
KSC1 130806Z 10003KT 17/13 A3016 RMK A01 T01660125  RH  077%=      5-min Rain = 0
KSC1 130807Z 11003KT 17/12 A3016 RMK A01 T01660124  RH  076%=      5-min Rain = 0
KSC1 130808Z 11003KT 17/12 A3016 RMK A01 T01650124  RH  076%=      5-min Rain = 0
KSC1 130809Z 11003KT 17/12 A3016 RMK A01 T01650124  RH  077%=      5-min Rain = 0
KSC1 130810Z 11003KT 17/12 A3016 RMK A01 T01650123  RH  077%=      5-min Rain = 0
KSC1 130811Z 11003KT 17/12 A3016 RMK A01 T01650124  RH  076%=      5-min Rain = 0
KSC1 130812Z 11002KT 17/12 A3016 RMK A01 T01650124  RH  076%=      5-min Rain = 0
KSC1 130813Z 11002KT 17/12 A3016 RMK A01 T01650124  RH  077%=      5-min Rain = 0
KSC1 130814Z 11003KT 17/12 A3016 RMK A01 T01650124  RH  076%=      5-min Rain = 0
KSC1 130815Z 11002KT 17/12 A3016 RMK A01 T01650124  RH  076%=      5-min Rain = 0
KSC1 130816Z 11002KT 17/12 A3016 RMK A01 T01650124  RH  077%=      5-min Rain = 0
KSC1 130817Z 11002KT 17/12 A3016 RMK A01 T01650124  RH  077%=      5-min Rain = 0
KSC1 130818Z 11002KT 16/12 A3016 RMK A01 T01640123  RH  077%=      5-min Rain = 0
KSC1 130819Z 11003KT 16/12 A3016 RMK A01 T01640123  RH  077%=      5-min Rain = 0
KSC1 130820Z 11003KT 16/12 A3016 RMK A01 T01640123  RH  077%=      5-min Rain = 0
KSC1 130821Z 10003KT 16/12 A3016 RMK A01 T01630123  RH  077%=      5-min Rain = 0
KSC1 130822Z 09002KT 16/12 A3016 RMK A01 T01630124  RH  078%=      5-min Rain = 0
KSC1 130823Z 09002KT 16/13 A3016 RMK A01 T01620125  RH  079%=      5-min Rain = 0
KSC1 130824Z 09002KT 16/13 A3016 RMK A01 T01620126  RH  079%=      5-min Rain = 0
KSC1 130825Z 09002KT 16/12 A3016 RMK A01 T01620124  RH  078%=      5-min Rain = 0
KSC1 130826Z 09002KT 16/12 A3016 RMK A01 T01620124  RH  079%=      5-min Rain = 0
KSC1 130827Z 09002KT 16/13 A3016 RMK A01 T01610125  RH  079%=      5-min Rain = 0
KSC1 130828Z 10002KT 16/13 A3016 RMK A01 T01620125  RH  079%=      5-min Rain = 0
KSC1 130829Z 10002KT 16/13 A3016 RMK A01 T01610125  RH  079%=      5-min Rain = 0
KSC1 130830Z 10003KT 16/13 A3016 RMK A01 T01610125  RH  079%=      5-min Rain = 0
KSC1 130831Z 10003KT 16/12 A3016 RMK A01 T01610123  RH  078%=      5-min Rain = 0
KSC1 130832Z 11003KT 16/12 A3016 RMK A01 T01600123  RH  078%=      5-min Rain = 0
KSC1 130833Z 11003KT 16/12 A3016 RMK A01 T01600124  RH  079%=      5-min Rain = 0
KSC1 130834Z 11003KT 16/12 A3016 RMK A01 T01590124  RH  079%=      5-min Rain = 0
KSC1 130835Z 11003KT 16/12 A3016 RMK A01 T01590124  RH  079%=      5-min Rain = 0
KSC1 130836Z 11004KT 16/12 A3016 RMK A01 T01590123  RH  079%=      5-min Rain = 0
KSC1 130837Z 10004KT 16/12 A3016 RMK A01 T01590124  RH  080%=      5-min Rain = 0
KSC1 130838Z 10004KT 16/12 A3016 RMK A01 T01580124  RH  080%=      5-min Rain = 0
KSC1 130839Z 10004KT 16/12 A3016 RMK A01 T01580124  RH  080%=      5-min Rain = 0
KSC1 130840Z 10004KT 16/12 A3016 RMK A01 T01570123  RH  080%=      5-min Rain = 0
KSC1 130841Z 10004KT 16/12 A3016 RMK A01 T01570123  RH  080%=      5-min Rain = 0
KSC1 130842Z 10004KT 16/12 A3016 RMK A01 T01570122  RH  080%=      5-min Rain = 0
KSC1 130843Z 10004KT 16/12 A3016 RMK A01 T01580121  RH  079%=      5-min Rain = 0
KSC1 130844Z 10004KT 16/12 A3016 RMK A01 T01590121  RH  078%=      5-min Rain = 0
KSC1 130845Z 10005KT 16/12 A3016 RMK A01 T01600121  RH  077%=      5-min Rain = 0
KSC1 130846Z 11005KT 16/12 A3016 RMK A01 T01610120  RH  077%=      5-min Rain = 0
KSC1 130847Z 10004KT 16/12 A3016 RMK A01 T01620120  RH  076%=      5-min Rain = 0
KSC1 130848Z 10004KT 16/12 A3016 RMK A01 T01630119  RH  075%=      5-min Rain = 0
KSC1 130849Z 10004KT 16/12 A3016 RMK A01 T01640119  RH  075%=      5-min Rain = 0
KSC1 130850Z 10004KT 16/12 A3016 RMK A01 T01640119  RH  074%=      5-min Rain = 0
KSC1 130851Z 10004KT 17/12 A3016 RMK A01 T01650119  RH  074%=      5-min Rain = 0
KSC1 130852Z 10004KT 17/12 A3016 RMK A01 T01660118  RH  073%=      5-min Rain = 0
KSC1 130853Z 10004KT 17/12 A3016 RMK A01 T01670119  RH  073%=      5-min Rain = 0
KSC1 130854Z 10003KT 17/12 A3016 RMK A01 T01680119  RH  073%=      5-min Rain = 0
KSC1 130855Z 11003KT 17/12 A3016 RMK A01 T01690119  RH  072%=      5-min Rain = 0
KSC1 130856Z 11003KT 17/12 A3016 RMK A01 T01700119  RH  072%=      5-min Rain = 0
KSC1 130857Z 11003KT 17/12 A3016 RMK A01 T01700119  RH  072%=      5-min Rain = 0
KSC1 130858Z 11003KT 17/12 A3016 RMK A01 T01710119  RH  071%=      5-min Rain = 0
KSC1 130859Z 11004KT 17/12 A3016 RMK A01 T01720119  RH  071%=      5-min Rain = 0
KSC1 130900Z 10004KT 17/12 A3016 RMK A01 T01730119  RH  071%=      5-min Rain = 0
KSC1 130901Z 11004KT 17/12 A3016 RMK A01 T01730119  RH  071%=      5-min Rain = 0
KSC1 130902Z 11004KT 17/12 A3016 RMK A01 T01730119  RH  070%=      5-min Rain = 0
KSC1 130903Z 11004KT 17/12 A3016 RMK A01 T01730119  RH  070%=      5-min Rain = 0
KSC1 130904Z 11004KT 17/12 A3016 RMK A01 T01730118  RH  070%=      5-min Rain = 0
KSC1 130905Z 11004KT 17/12 A3016 RMK A01 T01730118  RH  070%=      5-min Rain = 0
KSC1 130906Z 11005KT 17/12 A3016 RMK A01 T01720118  RH  070%=      5-min Rain = 0
KSC1 130907Z 11004KT 17/12 A3016 RMK A01 T01730118  RH  070%=      5-min Rain = 0
KSC1 130908Z 11004KT 17/12 A3016 RMK A01 T01720118  RH  070%=      5-min Rain = 0
KSC1 130909Z 10004KT 17/12 A3016 RMK A01 T01730118  RH  070%=      5-min Rain = 0
KSC1 130910Z 10005KT 17/12 A3016 RMK A01 T01730118  RH  070%=      5-min Rain = 0
KSC1 130911Z 10004KT 17/12 A3016 RMK A01 T01740119  RH  070%=      5-min Rain = 0
KSC1 130912Z 10004KT 17/12 A3016 RMK A01 T01740118  RH  070%=      5-min Rain = 0
KSC1 130913Z 10004KT 17/12 A3016 RMK A01 T01740118  RH  070%=      5-min Rain = 0
KSC1 130914Z 10004KT 17/12 A3016 RMK A01 T01740118  RH  070%=      5-min Rain = 0
KSC1 130915Z 10004KT 17/12 A3016 RMK A01 T01740118  RH  070%=      5-min Rain = 0
KSC1 130916Z 10004KT 17/12 A3016 RMK A01 T01740118  RH  070%=      5-min Rain = 0
KSC1 130917Z 10004KT 17/12 A3016 RMK A01 T01730118  RH  070%=      5-min Rain = 0
KSC1 130918Z 10004KT 17/12 A3016 RMK A01 T01730118  RH  070%=      5-min Rain = 0
KSC1 130919Z 10005KT 17/12 A3016 RMK A01 T01720118  RH  070%=      5-min Rain = 0
KSC1 130920Z 10005KT 17/12 A3016 RMK A01 T01720118  RH  070%=      5-min Rain = 0
KSC1 130921Z 10005KT 17/12 A3016 RMK A01 T01720118  RH  070%=      5-min Rain = 0
KSC1 130922Z 10005KT 17/12 A3016 RMK A01 T01720118  RH  071%=      5-min Rain = 0
KSC1 130923Z 10005KT 17/12 A3016 RMK A01 T01720118  RH  071%=      5-min Rain = 0
KSC1 130924Z 10005KT 17/12 A3016 RMK A01 T01710118  RH  071%=      5-min Rain = 0
KSC1 130925Z 09005KT 17/12 A3016 RMK A01 T01720118  RH  071%=      5-min Rain = 0
KSC1 130926Z 09005KT 17/12 A3016 RMK A01 T01710118  RH  071%=      5-min Rain = 0
KSC1 130927Z 09005KT 17/12 A3016 RMK A01 T01710117  RH  071%=      5-min Rain = 0
KSC1 130928Z 09004KT 17/12 A3016 RMK A01 T01710118  RH  071%=      5-min Rain = 0
KSC1 130929Z 09004KT 17/12 A3016 RMK A01 T01710117  RH  071%=      5-min Rain = 0
KSC1 130930Z 09004KT 17/12 A3016 RMK A01 T01710118  RH  071%=      5-min Rain = 0
KSC1 130931Z 09004KT 17/12 A3016 RMK A01 T01710118  RH  071%=      5-min Rain = 0
KSC1 130932Z 09004KT 17/12 A3016 RMK A01 T01710118  RH  071%=      5-min Rain = 0
KSC1 130933Z 09004KT 17/12 A3016 RMK A01 T01700118  RH  071%=      5-min Rain = 0
KSC1 130934Z 09004KT 17/12 A3016 RMK A01 T01700118  RH  071%=      5-min Rain = 0
KSC1 130935Z 09003KT 17/12 A3016 RMK A01 T01700118  RH  071%=      5-min Rain = 0
KSC1 130936Z 09004KT 17/12 A3016 RMK A01 T01700118  RH  071%=      5-min Rain = 0
KSC1 130937Z 09003KT 17/12 A3016 RMK A01 T01700117  RH  071%=      5-min Rain = 0
KSC1 130938Z 09003KT 17/12 A3016 RMK A01 T01700117  RH  071%=      5-min Rain = 0
KSC1 130939Z 09003KT 17/12 A3016 RMK A01 T01700118  RH  071%=      5-min Rain = 0
KSC1 130940Z 09004KT 17/12 A3016 RMK A01 T01700118  RH  071%=      5-min Rain = 0
KSC1 130941Z 09004KT 17/12 A3016 RMK A01 T01700118  RH  071%=      5-min Rain = 0
KSC1 130942Z 09004KT 17/12 A3016 RMK A01 T01690117  RH  072%=      5-min Rain = 0
KSC1 130943Z 09004KT 17/12 A3016 RMK A01 T01690117  RH  072%=      5-min Rain = 0
KSC1 130944Z 09003KT 17/12 A3016 RMK A01 T01690118  RH  072%=      5-min Rain = 0
KSC1 130945Z 08003KT 17/12 A3016 RMK A01 T01690118  RH  072%=      5-min Rain = 0
KSC1 130946Z 08004KT 17/12 A3016 RMK A01 T01680118  RH  072%=      5-min Rain = 0
KSC1 130947Z 08003KT 17/12 A3016 RMK A01 T01680119  RH  073%=      5-min Rain = 0
KSC1 130948Z 08003KT 17/12 A3016 RMK A01 T01670119  RH  073%=      5-min Rain = 0
KSC1 130949Z 07003KT 17/12 A3016 RMK A01 T01670119  RH  073%=      5-min Rain = 0
KSC1 130950Z 08003KT 17/12 A3016 RMK A01 T01670118  RH  073%=      5-min Rain = 0
KSC1 130951Z 08003KT 17/12 A3016 RMK A01 T01660118  RH  073%=      5-min Rain = 0
KSC1 130952Z 07002KT 17/12 A3016 RMK A01 T01660118  RH  073%=      5-min Rain = 0
KSC1 130953Z 06002KT 17/12 A3016 RMK A01 T01660118  RH  073%=      5-min Rain = 0
KSC1 130954Z 06002KT 17/12 A3016 RMK A01 T01660118  RH  073%=      5-min Rain = 0
KSC1 130955Z 06002KT 17/12 A3016 RMK A01 T01660118  RH  073%=      5-min Rain = 0
KSC1 130956Z 06002KT 17/12 A3016 RMK A01 T01650117  RH  074%=      5-min Rain = 0
KSC1 130957Z 08001KT 16/12 A3016 RMK A01 T01640118  RH  074%=      5-min Rain = 0
KSC1 130958Z 08001KT 16/12 A3016 RMK A01 T01620117  RH  075%=      5-min Rain = 0
KSC1 130959Z 09001KT 16/12 A3016 RMK A01 T01610118  RH  075%=      5-min Rain = 0
KSC1 131000Z 09002KT 16/12 A3016 RMK A01 T01600118  RH  076%=      5-min Rain = 0
KSC1 131001Z 08001KT 16/12 A3017 RMK A01 T01590118  RH  077%=      5-min Rain = 0
KSC1 131002Z 09001KT 16/12 A3017 RMK A01 T01580118  RH  077%=      5-min Rain = 0
KSC1 131003Z 08001KT 16/12 A3017 RMK A01 T01560118  RH  078%=      5-min Rain = 0
KSC1 131004Z 08001KT 16/12 A3017 RMK A01 T01550118  RH  079%=      5-min Rain = 0
KSC1 131005Z 08001KT 15/12 A3017 RMK A01 T01540119  RH  080%=      5-min Rain = 0
KSC1 131006Z 08001KT 15/12 A3017 RMK A01 T01530119  RH  080%=      5-min Rain = 0
KSC1 131007Z 08001KT 15/12 A3017 RMK A01 T01520119  RH  081%=      5-min Rain = 0
KSC1 131008Z 09001KT 15/12 A3017 RMK A01 T01510119  RH  081%=      5-min Rain = 0
KSC1 131009Z 10001KT 15/12 A3017 RMK A01 T01510118  RH  081%=      5-min Rain = 0
KSC1 131010Z 12001KT 15/12 A3017 RMK A01 T01510118  RH  081%=      5-min Rain = 0
KSC1 131011Z 11001KT 15/12 A3017 RMK A01 T01510118  RH  081%=      5-min Rain = 0
KSC1 131012Z 11001KT 15/12 A3017 RMK A01 T01520118  RH  081%=      5-min Rain = 0
KSC1 131013Z 10001KT 15/12 A3017 RMK A01 T01510119  RH  081%=      5-min Rain = 0
KSC1 131014Z 10001KT 15/12 A3017 RMK A01 T01500119  RH  081%=      5-min Rain = 0
KSC1 131015Z 10001KT 15/12 A3017 RMK A01 T01500119  RH  082%=      5-min Rain = 0
KSC1 131016Z 10001KT 15/12 A3017 RMK A01 T01490119  RH  082%=      5-min Rain = 0
KSC1 131017Z 10002KT 15/12 A3017 RMK A01 T01480119  RH  083%=      5-min Rain = 0
KSC1 131018Z 10002KT 15/12 A3017 RMK A01 T01470120  RH  084%=      5-min Rain = 0
KSC1 131019Z 10002KT 15/12 A3017 RMK A01 T01470120  RH  084%=      5-min Rain = 0
KSC1 131020Z 10003KT 15/12 A3017 RMK A01 T01460121  RH  084%=      5-min Rain = 0
KSC1 131021Z 10003KT 15/12 A3017 RMK A01 T01460121  RH  085%=      5-min Rain = 0
KSC1 131022Z 10003KT 15/12 A3017 RMK A01 T01450121  RH  086%=      5-min Rain = 0
KSC1 131023Z 10003KT 15/12 A3017 RMK A01 T01450121  RH  086%=      5-min Rain = 0
KSC1 131024Z 10003KT 14/12 A3017 RMK A01 T01440122  RH  087%=      5-min Rain = 0
KSC1 131025Z 09003KT 14/12 A3017 RMK A01 T01430123  RH  088%=      5-min Rain = 0
KSC1 131026Z 09003KT 14/12 A3017 RMK A01 T01430124  RH  088%=      5-min Rain = 0
KSC1 131027Z 09003KT 14/12 A3017 RMK A01 T01430124  RH  088%=      5-min Rain = 0
KSC1 131028Z 09003KT 14/12 A3017 RMK A01 T01420124  RH  089%=      5-min Rain = 0
KSC1 131029Z 09003KT 14/12 A3017 RMK A01 T01420124  RH  089%=      5-min Rain = 0
KSC1 131030Z 09003KT 14/13 A3017 RMK A01 T01420125  RH  089%=      5-min Rain = 0
KSC1 131031Z 09003KT 14/12 A3017 RMK A01 T01420124  RH  089%=      5-min Rain = 0
KSC1 131032Z 09003KT 14/13 A3017 RMK A01 T01420125  RH  089%=      5-min Rain = 0
KSC1 131033Z 09004KT 14/13 A3017 RMK A01 T01440125  RH  089%=      5-min Rain = 0
KSC1 131034Z 09004KT 14/12 A3018 RMK A01 T01440124  RH  088%=      5-min Rain = 0
KSC1 131035Z 09004KT 15/12 A3018 RMK A01 T01450124  RH  087%=      5-min Rain = 0
KSC1 131036Z 09004KT 15/12 A3018 RMK A01 T01450123  RH  086%=      5-min Rain = 0
KSC1 131037Z 09003KT 15/12 A3018 RMK A01 T01460122  RH  086%=      5-min Rain = 0
KSC1 131038Z 09004KT 15/12 A3018 RMK A01 T01470122  RH  085%=      5-min Rain = 0
KSC1 131039Z 09003KT 15/12 A3018 RMK A01 T01470121  RH  084%=      5-min Rain = 0
KSC1 131040Z 09003KT 15/12 A3018 RMK A01 T01480121  RH  084%=      5-min Rain = 0
KSC1 131041Z 09003KT 15/12 A3018 RMK A01 T01480121  RH  084%=      5-min Rain = 0
KSC1 131042Z 09003KT 15/12 A3018 RMK A01 T01470120  RH  084%=      5-min Rain = 0
KSC1 131043Z 09004KT 15/12 A3018 RMK A01 T01460119  RH  084%=      5-min Rain = 0
KSC1 131044Z 09004KT 15/12 A3018 RMK A01 T01450119  RH  084%=      5-min Rain = 0
KSC1 131045Z 09004KT 15/12 A3018 RMK A01 T01450119  RH  085%=      5-min Rain = 0
KSC1 131046Z 08004KT 15/12 A3018 RMK A01 T01450119  RH  085%=      5-min Rain = 0
KSC1 131047Z 08004KT 15/12 A3018 RMK A01 T01450119  RH  085%=      5-min Rain = 0
KSC1 131048Z 08004KT 15/12 A3018 RMK A01 T01450119  RH  085%=      5-min Rain = 0
KSC1 131049Z 08004KT 15/12 A3018 RMK A01 T01450119  RH  085%=      5-min Rain = 0
KSC1 131050Z 08004KT 15/12 A3018 RMK A01 T01450120  RH  085%=      5-min Rain = 0
KSC1 131051Z 08004KT 15/12 A3018 RMK A01 T01460121  RH  085%=      5-min Rain = 0
KSC1 131052Z 08004KT 15/12 A3018 RMK A01 T01460120  RH  084%=      5-min Rain = 0
KSC1 131053Z 08003KT 15/12 A3018 RMK A01 T01460119  RH  084%=      5-min Rain = 0
KSC1 131054Z 08003KT 15/12 A3018 RMK A01 T01450119  RH  084%=      5-min Rain = 0
KSC1 131055Z 08003KT 15/12 A3018 RMK A01 T01450119  RH  085%=      5-min Rain = 0
KSC1 131056Z 08003KT 15/12 A3018 RMK A01 T01450119  RH  085%=      5-min Rain = 0
KSC1 131057Z 08003KT 15/12 A3018 RMK A01 T01450119  RH  084%=      5-min Rain = 0
KSC1 131058Z 08003KT 15/12 A3018 RMK A01 T01450119  RH  084%=      5-min Rain = 0
KSC1 131059Z 08003KT 14/12 A3018 RMK A01 T01440118  RH  085%=      5-min Rain = 0
KSC1 131100Z 07003KT 14/12 A3018 RMK A01 T01430119  RH  085%=      5-min Rain = 0
KSC1 131101Z 07003KT 14/12 A3018 RMK A01 T01430119  RH  085%=      5-min Rain = 0
KSC1 131102Z 07003KT 14/12 A3018 RMK A01 T01420119  RH  086%=      5-min Rain = 0
KSC1 131103Z 08004KT 14/12 A3018 RMK A01 T01420119  RH  086%=      5-min Rain = 0
KSC1 131104Z 08004KT 14/12 A3018 RMK A01 T01420119  RH  086%=      5-min Rain = 0
KSC1 131105Z 08004KT 14/12 A3018 RMK A01 T01420120  RH  087%=      5-min Rain = 0
KSC1 131106Z 08004KT 14/12 A3018 RMK A01 T01410121  RH  087%=      5-min Rain = 0
KSC1 131107Z 08004KT 14/12 A3018 RMK A01 T01410122  RH  088%=      5-min Rain = 0
KSC1 131108Z 08004KT 14/12 A3018 RMK A01 T01410121  RH  088%=      5-min Rain = 0
KSC1 131109Z 08004KT 14/12 A3018 RMK A01 T01430121  RH  087%=      5-min Rain = 0
KSC1 131110Z 08004KT 15/12 A3018 RMK A01 T01460120  RH  085%=      5-min Rain = 0
KSC1 131111Z 08004KT 15/12 A3018 RMK A01 T01480119  RH  082%=      5-min Rain = 0
KSC1 131112Z 08004KT 15/12 A3018 RMK A01 T01510118  RH  081%=      5-min Rain = 0
KSC1 131113Z 08004KT 15/12 A3019 RMK A01 T01530118  RH  080%=      5-min Rain = 0
KSC1 131114Z 08005KT 15/12 A3019 RMK A01 T01530117  RH  079%=      5-min Rain = 0
KSC1 131115Z 08004KT 15/12 A3019 RMK A01 T01540117  RH  078%=      5-min Rain = 0
KSC1 131116Z 08004KT 16/12 A3019 RMK A01 T01560117  RH  078%=      5-min Rain = 0
KSC1 131117Z 08005KT 16/12 A3019 RMK A01 T01570117  RH  077%=      5-min Rain = 0
KSC1 131118Z 08005KT 16/12 A3019 RMK A01 T01580117  RH  076%=      5-min Rain = 0
KSC1 131119Z 08004KT 16/12 A3019 RMK A01 T01600117  RH  076%=      5-min Rain = 0
KSC1 131120Z 08004KT 16/12 A3019 RMK A01 T01610117  RH  075%=      5-min Rain = 0
KSC1 131121Z 07004KT 16/12 A3019 RMK A01 T01610117  RH  075%=      5-min Rain = 0
KSC1 131122Z 07004KT 16/12 A3019 RMK A01 T01610117  RH  075%=      5-min Rain = 0
KSC1 131123Z 07004KT 16/12 A3019 RMK A01 T01610117  RH  075%=      5-min Rain = 0
KSC1 131124Z 08004KT 16/12 A3019 RMK A01 T01610118  RH  076%=      5-min Rain = 0
KSC1 131125Z 07004KT 16/12 A3019 RMK A01 T01610118  RH  076%=      5-min Rain = 0
KSC1 131126Z 07004KT 16/12 A3019 RMK A01 T01610118  RH  076%=      5-min Rain = 0
KSC1 131127Z 07004KT 16/12 A3019 RMK A01 T01600118  RH  076%=      5-min Rain = 0
KSC1 131128Z 07004KT 16/12 A3019 RMK A01 T01600117  RH  076%=      5-min Rain = 0
KSC1 131129Z 07004KT 16/12 A3019 RMK A01 T01600118  RH  076%=      5-min Rain = 0
KSC1 131130Z 07004KT 16/12 A3019 RMK A01 T01600118  RH  076%=      5-min Rain = 0
KSC1 131131Z 07005KT 16/12 A3019 RMK A01 T01600118  RH  076%=      5-min Rain = 0
KSC1 131132Z 07004KT 16/12 A3019 RMK A01 T01600118  RH  076%=      5-min Rain = 0
KSC1 131133Z 07005KT 16/12 A3019 RMK A01 T01600118  RH  076%=      5-min Rain = 0
KSC1 131134Z 07005KT 16/12 A3019 RMK A01 T01600118  RH  076%=      5-min Rain = 0
KSC1 131135Z 08004KT 16/12 A3019 RMK A01 T01600118  RH  076%=      5-min Rain = 0
KSC1 131136Z 07004KT 16/12 A3019 RMK A01 T01600118  RH  076%=      5-min Rain = 0
KSC1 131137Z 08004KT 16/12 A3019 RMK A01 T01600118  RH  076%=      5-min Rain = 0
KSC1 131138Z 08004KT 16/12 A3019 RMK A01 T01600119  RH  076%=      5-min Rain = 0
KSC1 131139Z 08004KT 16/12 A3019 RMK A01 T01600119  RH  076%=      5-min Rain = 0
KSC1 131140Z 08004KT 16/12 A3019 RMK A01 T01600118  RH  076%=      5-min Rain = 0
KSC1 131141Z 08004KT 16/12 A3019 RMK A01 T01600119  RH  077%=      5-min Rain = 0
KSC1 131142Z 08004KT 16/12 A3019 RMK A01 T01590118  RH  077%=      5-min Rain = 0
KSC1 131143Z 08003KT 16/12 A3019 RMK A01 T01580118  RH  077%=      5-min Rain = 0
KSC1 131144Z 08004KT 16/12 A3019 RMK A01 T01580118  RH  077%=      5-min Rain = 0
KSC1 131145Z 08003KT 16/12 A3019 RMK A01 T01580118  RH  077%=      5-min Rain = 0
KSC1 131146Z 09003KT 16/12 A3019 RMK A01 T01580118  RH  077%=      5-min Rain = 0
KSC1 131147Z 09003KT 16/12 A3019 RMK A01 T01570118  RH  078%=      5-min Rain = 0
KSC1 131148Z 10003KT 16/12 A3019 RMK A01 T01570118  RH  078%=      5-min Rain = 0
KSC1 131149Z 11003KT 16/12 A302 RMK A01 T01570118  RH  078%=      5-min Rain = 0
KSC1 131150Z 11003KT 16/12 A302 RMK A01 T01570118  RH  078%=      5-min Rain = 0
KSC1 131151Z 11003KT 16/12 A302 RMK A01 T01570119  RH  078%=      5-min Rain = 0
KSC1 131152Z 11004KT 16/12 A302 RMK A01 T01560118  RH  078%=      5-min Rain = 0
KSC1 131153Z 11004KT 16/12 A302 RMK A01 T01560119  RH  078%=      5-min Rain = 0
KSC1 131154Z 11004KT 16/12 A302 RMK A01 T01570119  RH  079%=      5-min Rain = 0
KSC1 131155Z 11004KT 16/12 A302 RMK A01 T01560120  RH  079%=      5-min Rain = 0
KSC1 131156Z 10004KT 16/12 A302 RMK A01 T01570120  RH  079%=      5-min Rain = 0
KSC1 131157Z 10003KT 16/12 A302 RMK A01 T01570121  RH  079%=      5-min Rain = 0
KSC1 131158Z 09004KT 16/12 A302 RMK A01 T01590121  RH  078%=      5-min Rain = 0
KSC1 131159Z 09004KT 16/12 A302 RMK A01 T01600122  RH  078%=      5-min Rain = 0
KSC1 131200Z 08004KT 16/12 A302 RMK A01 T01610122  RH  077%=      5-min Rain = 0
KSC1 131201Z 07004KT 16/12 A302 RMK A01 T01630122  RH  077%=      5-min Rain = 0
KSC1 131202Z 07003KT 16/12 A302 RMK A01 T01640123  RH  077%=      5-min Rain = 0
KSC1 131203Z 06003KT 16/12 A302 RMK A01 T01640123  RH  077%=      5-min Rain = 0
KSC1 131204Z 06003KT 16/12 A302 RMK A01 T01640124  RH  077%=      5-min Rain = 0
KSC1 131205Z 06003KT 16/12 A302 RMK A01 T01640123  RH  077%=      5-min Rain = 0
KSC1 131206Z 06003KT 16/12 A302 RMK A01 T01630123  RH  077%=      5-min Rain = 0
KSC1 131207Z 05003KT 16/12 A302 RMK A01 T01630123  RH  077%=      5-min Rain = 0
KSC1 131208Z 05003KT 16/12 A302 RMK A01 T01640123  RH  077%=      5-min Rain = 0
KSC1 131209Z 05003KT 16/12 A302 RMK A01 T01640123  RH  076%=      5-min Rain = 0
KSC1 131210Z 05003KT 17/12 A302 RMK A01 T01650123  RH  076%=      5-min Rain = 0
KSC1 131211Z 06003KT 17/12 A302 RMK A01 T01660123  RH  076%=      5-min Rain = 0
KSC1 131212Z 06003KT 17/12 A302 RMK A01 T01670123  RH  075%=      5-min Rain = 0
KSC1 131213Z 05002KT 17/12 A302 RMK A01 T01680123  RH  075%=      5-min Rain = 0
KSC1 131214Z 06002KT 17/12 A302 RMK A01 T01690123  RH  074%=      5-min Rain = 0
KSC1 131215Z 05002KT 17/12 A302 RMK A01 T01700123  RH  074%=      5-min Rain = 0
KSC1 131216Z 05002KT 17/12 A302 RMK A01 T01710123  RH  073%=      5-min Rain = 0
KSC1 131217Z 05003KT 17/12 A302 RMK A01 T01720123  RH  073%=      5-min Rain = 0
KSC1 131218Z 05002KT 17/13 A302 RMK A01 T01730125  RH  073%=      5-min Rain = 0
KSC1 131219Z 05003KT 17/13 A302 RMK A01 T01730125  RH  073%=      5-min Rain = 0
KSC1 131220Z 05002KT 17/13 A302 RMK A01 T01740125  RH  073%=      5-min Rain = 0
KSC1 131221Z 05002KT 17/13 A302 RMK A01 T01740125  RH  073%=      5-min Rain = 0
KSC1 131222Z 05002KT 17/13 A302 RMK A01 T01740126  RH  073%=      5-min Rain = 0
KSC1 131223Z 04002KT 18/13 A302 RMK A01 T01750126  RH  073%=      5-min Rain = 0
KSC1 131224Z 05002KT 18/13 A302 RMK A01 T01760127  RH  073%=      5-min Rain = 0
KSC1 131225Z 05002KT 18/13 A302 RMK A01 T01760128  RH  073%=      5-min Rain = 0
KSC1 131226Z 06002KT 18/13 A302 RMK A01 T01760127  RH  073%=      5-min Rain = 0
KSC1 131227Z 06002KT 18/13 A3021 RMK A01 T01770127  RH  072%=      5-min Rain = 0
KSC1 131228Z 07002KT 18/13 A3021 RMK A01 T01780128  RH  072%=      5-min Rain = 0
KSC1 131229Z 06002KT 18/13 A3021 RMK A01 T01780127  RH  072%=      5-min Rain = 0
KSC1 131230Z 07002KT 18/13 A3021 RMK A01 T01790129  RH  072%=      5-min Rain = 0
KSC1 131231Z 06003KT 18/13 A3021 RMK A01 T01790128  RH  072%=      5-min Rain = 0
KSC1 131232Z 06003KT 18/13 A3021 RMK A01 T01790128  RH  072%=      5-min Rain = 0
KSC1 131233Z 06003KT 18/13 A3021 RMK A01 T01790129  RH  073%=      5-min Rain = 0
KSC1 131234Z 06003KT 18/13 A3021 RMK A01 T01790129  RH  072%=      5-min Rain = 0
KSC1 131235Z 06003KT 18/13 A3021 RMK A01 T01790128  RH  072%=      5-min Rain = 0
KSC1 131236Z 06003KT 18/13 A3021 RMK A01 T01790127  RH  072%=      5-min Rain = 0
KSC1 131237Z 07003KT 18/13 A3021 RMK A01 T01790127  RH  071%=      5-min Rain = 0
KSC1 131238Z 08003KT 18/13 A3021 RMK A01 T01800129  RH  072%=      5-min Rain = 0
KSC1 131239Z 08002KT 18/13 A3021 RMK A01 T01810129  RH  072%=      5-min Rain = 0
KSC1 131240Z 08003KT 18/13 A3021 RMK A01 T01810129  RH  071%=      5-min Rain = 0
KSC1 131241Z 08003KT 18/13 A3021 RMK A01 T01810129  RH  072%=      5-min Rain = 0
KSC1 131242Z 08003KT 18/13 A3021 RMK A01 T01820130  RH  072%=      5-min Rain = 0
KSC1 131243Z 09003KT 18/13 A3021 RMK A01 T01820129  RH  071%=      5-min Rain = 0
KSC1 131244Z 08003KT 18/13 A3021 RMK A01 T01820130  RH  072%=      5-min Rain = 0
KSC1 131245Z 08004KT 18/13 A3021 RMK A01 T01810131  RH  072%=      5-min Rain = 0
KSC1 131246Z 08003KT 18/13 A3021 RMK A01 T01820131  RH  072%=      5-min Rain = 0
KSC1 131247Z 08003KT 18/13 A3021 RMK A01 T01820131  RH  072%=      5-min Rain = 0
KSC1 131248Z 07003KT 18/13 A3021 RMK A01 T01830132  RH  072%=      5-min Rain = 0
KSC1 131249Z 07003KT 18/13 A3021 RMK A01 T01830133  RH  072%=      5-min Rain = 0
KSC1 131250Z 07003KT 18/13 A3021 RMK A01 T01840133  RH  072%=      5-min Rain = 0
KSC1 131251Z 08003KT 18/13 A3021 RMK A01 T01840134  RH  073%=      5-min Rain = 0
KSC1 131252Z 07003KT 19/14 A3021 RMK A01 T01850135  RH  073%=      5-min Rain = 0
KSC1 131253Z 07003KT 19/14 A3021 RMK A01 T01850136  RH  073%=      5-min Rain = 0
KSC1 131254Z 07003KT 19/14 A3021 RMK A01 T01860135  RH  072%=      5-min Rain = 0
KSC1 131255Z 07002KT 19/14 A3021 RMK A01 T01870136  RH  072%=      5-min Rain = 0
KSC1 131256Z 07003KT 19/14 A3021 RMK A01 T01880136  RH  072%=      5-min Rain = 0
KSC1 131257Z 09004KT 19/14 A3021 RMK A01 T01890135  RH  071%=      5-min Rain = 0
KSC1 131258Z 08005KT 19/14 A3021 RMK A01 T01900136  RH  071%=      5-min Rain = 0
KSC1 131259Z 09004KT 19/14 A3021 RMK A01 T01910135  RH  070%=      5-min Rain = 0
KSC1 131300Z 10006KT 19/13 A3021 RMK A01 T01930134  RH  069%=      5-min Rain = 0
KSC1 131301Z 10006KT 19/14 A3021 RMK A01 T01940135  RH  068%=      5-min Rain = 0
KSC1 131302Z 10006KT 20/13 A3021 RMK A01 T01960133  RH  067%=      5-min Rain = 0
KSC1 131303Z 10007KT 20/13 A3021 RMK A01 T01970134  RH  067%=      5-min Rain = 0
KSC1 131304Z 10007KT 20/13 A3021 RMK A01 T01970134  RH  067%=      5-min Rain = 0
KSC1 131305Z 10006KT 20/13 A3021 RMK A01 T01980134  RH  067%=      5-min Rain = 0
KSC1 131306Z 10007KT 20/13 A3021 RMK A01 T01990134  RH  067%=      5-min Rain = 0
KSC1 131307Z 10006KT 20/14 A3021 RMK A01 T01990135  RH  066%=      5-min Rain = 0
KSC1 131308Z 09007KT 20/14 A3021 RMK A01 T02000135  RH  066%=      5-min Rain = 0
KSC1 131309Z 10007KT 20/14 A3021 RMK A01 T02010136  RH  066%=      5-min Rain = 0
KSC1 131310Z 10007KT 20/14 A3021 RMK A01 T02020136  RH  065%=      5-min Rain = 0
KSC1 131311Z 10008KT 20/14 A3021 RMK A01 T02030136  RH  065%=      5-min Rain = 0
KSC1 131312Z 11006KT 20/14 A3021 RMK A01 T02040135  RH  065%=      5-min Rain = 0
KSC1 131313Z 11007KT 21/14 A3021 RMK A01 T02050137  RH  065%=      5-min Rain = 0
KSC1 131314Z 11008KT 21/14 A3021 RMK A01 T02060136  RH  064%=      5-min Rain = 0
KSC1 131315Z 11009KT 21/14 A3021 RMK A01 T02070136  RH  064%=      5-min Rain = 0
KSC1 131316Z 11007KT 21/14 A3021 RMK A01 T02080136  RH  063%=      5-min Rain = 0
KSC1 131317Z 11009KT 21/14 A3021 RMK A01 T02090135  RH  063%=      5-min Rain = 0
KSC1 131318Z 11009KT 21/14 A3021 RMK A01 T02100136  RH  063%=      5-min Rain = 0
KSC1 131319Z 11010KT 21/14 A3021 RMK A01 T02100135  RH  062%=      5-min Rain = 0
KSC1 131320Z 11007KT 21/14 A3021 RMK A01 T02100136  RH  063%=      5-min Rain = 0
KSC1 131321Z 10008KT 21/14 A3022 RMK A01 T02100136  RH  063%=      5-min Rain = 0
KSC1 131322Z 11009KT 21/14 A3022 RMK A01 T02090136  RH  063%=      5-min Rain = 0
KSC1 131323Z 11009KT 21/14 A3022 RMK A01 T02090135  RH  063%=      5-min Rain = 0
KSC1 131324Z 10006KT 21/14 A3022 RMK A01 T02080137  RH  064%=      5-min Rain = 0
KSC1 131325Z 10007KT 21/14 A3022 RMK A01 T02080138  RH  064%=      5-min Rain = 0
KSC1 131326Z 10006KT 21/14 A3022 RMK A01 T02080138  RH  064%=      5-min Rain = 0
KSC1 131327Z 10008KT 21/14 A3022 RMK A01 T02080137  RH  064%=      5-min Rain = 0
KSC1 131328Z 11007KT 21/14 A3022 RMK A01 T02080137  RH  064%=      5-min Rain = 0
KSC1 131329Z 12008KT 21/14 A3022 RMK A01 T02080138  RH  064%=      5-min Rain = 0
KSC1 131330Z 11007KT 21/14 A3022 RMK A01 T02080138  RH  064%=      5-min Rain = 0
KSC1 131331Z 10005KT 21/14 A3022 RMK A01 T02080140  RH  065%=      5-min Rain = 0
KSC1 131332Z 10006KT 21/14 A3022 RMK A01 T02080139  RH  065%=      5-min Rain = 0
KSC1 131333Z 10007KT 21/14 A3022 RMK A01 T02080139  RH  065%=      5-min Rain = 0
KSC1 131334Z 11007KT 21/14 A3022 RMK A01 T02090139  RH  064%=      5-min Rain = 0
KSC1 131335Z 11006KT 21/14 A3022 RMK A01 T02090138  RH  064%=      5-min Rain = 0
KSC1 131336Z 10006KT 21/14 A3022 RMK A01 T02090140  RH  065%=      5-min Rain = 0
KSC1 131337Z 10006KT 21/14 A3022 RMK A01 T02100140  RH  064%=      5-min Rain = 0
KSC1 131338Z 11006KT 21/14 A3022 RMK A01 T02100141  RH  064%=      5-min Rain = 0
KSC1 131339Z 11006KT 21/14 A3022 RMK A01 T02110141  RH  064%=      5-min Rain = 0
KSC1 131340Z 10007KT 21/14 A3022 RMK A01 T02110140  RH  064%=      5-min Rain = 0
KSC1 131341Z 10009KT 21/14 A3022 RMK A01 T02110140  RH  064%=      5-min Rain = 0
KSC1 131342Z 11008KT 21/14 A3022 RMK A01 T02110138  RH  063%=      5-min Rain = 0
KSC1 131343Z 11007KT 21/14 A3022 RMK A01 T02110139  RH  064%=      5-min Rain = 0
KSC1 131344Z 11006KT 21/14 A3022 RMK A01 T02110140  RH  064%=      5-min Rain = 0
KSC1 131345Z 10008KT 21/14 A3022 RMK A01 T02120140  RH  064%=      5-min Rain = 0
KSC1 131346Z 10011KT 21/14 A3022 RMK A01 T02130139  RH  063%=      5-min Rain = 0
KSC1 131347Z 12010KT 21/14 A3022 RMK A01 T02130138  RH  062%=      5-min Rain = 0
KSC1 131348Z 11010KT 21/14 A3022 RMK A01 T02140138  RH  062%=      5-min Rain = 0
KSC1 131349Z 11010KT 21/14 A3022 RMK A01 T02130137  RH  062%=      5-min Rain = 0
KSC1 131350Z 11009KT 21/14 A3022 RMK A01 T02140137  RH  062%=      5-min Rain = 0
KSC1 131351Z 11011KT 21/14 A3022 RMK A01 T02140137  RH  062%=      5-min Rain = 0
KSC1 131352Z 11011KT 21/14 A3022 RMK A01 T02140136  RH  061%=      5-min Rain = 0
KSC1 131353Z 10010KT 21/14 A3022 RMK A01 T02140137  RH  061%=      5-min Rain = 0
KSC1 131354Z 11009KT 21/14 A3022 RMK A01 T02140137  RH  061%=      5-min Rain = 0
KSC1 131355Z 10011KT 22/14 A3022 RMK A01 T02150137  RH  061%=      5-min Rain = 0
KSC1 131356Z 11007KT 22/14 A3022 RMK A01 T02170138  RH  061%=      5-min Rain = 0
KSC1 131357Z 11010KT 22/14 A3022 RMK A01 T02180140  RH  061%=      5-min Rain = 0
KSC1 131358Z 11012KT 22/14 A3022 RMK A01 T02190138  RH  060%=      5-min Rain = 0
KSC1 131359Z 11011KT 22/14 A3022 RMK A01 T02200136  RH  059%=      5-min Rain = 0
KSC1 131400Z 10011KT 22/14 A3022 RMK A01 T02200137  RH  059%=      5-min Rain = 0
KSC1 131401Z 10012KT 22/14 A3022 RMK A01 T02200136  RH  059%=      5-min Rain = 0
KSC1 131402Z 10011KT 22/14 A3022 RMK A01 T02210137  RH  059%=      5-min Rain = 0
KSC1 131403Z 11010KT 22/14 A3022 RMK A01 T02220137  RH  058%=      5-min Rain = 0
KSC1 131404Z 10013KT 22/14 A3022 RMK A01 T02230137  RH  058%=      5-min Rain = 0
KSC1 131405Z 11011KT 23/14 A3022 RMK A01 T02250137  RH  057%=      5-min Rain = 0
KSC1 131406Z 10010KT 23/14 A3022 RMK A01 T02270138  RH  057%=      5-min Rain = 0
KSC1 131407Z 11012KT 23/14 A3022 RMK A01 T02280137  RH  056%=      5-min Rain = 0
KSC1 131408Z 10011KT 23/14 A3022 RMK A01 T02280136  RH  056%=      5-min Rain = 0
KSC1 131409Z 10010KT 23/14 A3022 RMK A01 T02260135  RH  057%=      5-min Rain = 0
KSC1 131410Z 10010KT 23/14 A3022 RMK A01 T02250136  RH  057%=      5-min Rain = 0
KSC1 131411Z 10010KT 23/14 A3022 RMK A01 T02260136  RH  057%=      5-min Rain = 0
KSC1 131412Z 10010KT 23/14 A3022 RMK A01 T02270136  RH  056%=      5-min Rain = 0
KSC1 131413Z 10010KT 23/14 A3022 RMK A01 T02270135  RH  056%=      5-min Rain = 0
KSC1 131414Z 11011KT 23/14 A3022 RMK A01 T02280135  RH  056%=      5-min Rain = 0
KSC1 131415Z 10013KT 23/13 A3022 RMK A01 T02280133  RH  055%=      5-min Rain = 0
KSC1 131416Z 11010KT 23/14 A3022 RMK A01 T02270135  RH  056%=      5-min Rain = 0
KSC1 131417Z 11012KT 23/14 A3022 RMK A01 T02270135  RH  056%=      5-min Rain = 0
KSC1 131418Z 11010KT 23/14 A3022 RMK A01 T02270135  RH  056%=      5-min Rain = 0
KSC1 131419Z 11007KT 23/14 A3022 RMK A01 T02280137  RH  056%=      5-min Rain = 0
KSC1 131420Z 11009KT 23/14 A3022 RMK A01 T02310137  RH  056%=      5-min Rain = 0
KSC1 131421Z 11008KT 23/14 A3022 RMK A01 T02320138  RH  055%=      5-min Rain = 0
KSC1 131422Z 11008KT 23/14 A3022 RMK A01 T02330139  RH  055%=      5-min Rain = 0
KSC1 131423Z 12009G14KT 24/14 A3022 RMK A01 T02350138  RH  055%=      5-min Rain = 0
KSC1 131424Z 12012KT 24/14 A3022 RMK A01 T02350135  RH  053%=      5-min Rain = 0
KSC1 131425Z 12013KT 23/13 A3022 RMK A01 T02340133  RH  053%=      5-min Rain = 0
KSC1 131426Z 12009KT 23/13 A3022 RMK A01 T02330132  RH  053%=      5-min Rain = 0
KSC1 131427Z 13011KT 23/13 A3022 RMK A01 T02330134  RH  054%=      5-min Rain = 0
KSC1 131428Z 13011KT 23/13 A3022 RMK A01 T02340133  RH  053%=      5-min Rain = 0
KSC1 131429Z 11009KT 23/13 A3022 RMK A01 T02340134  RH  053%=      5-min Rain = 0
KSC1 131430Z 10009KT 23/13 A3022 RMK A01 T02340133  RH  053%=      5-min Rain = 0
KSC1 131431Z 11010KT 23/14 A3022 RMK A01 T02340135  RH  054%=      5-min Rain = 0
KSC1 131432Z 12012KT 24/13 A3022 RMK A01 T02370133  RH  052%=      5-min Rain = 0
KSC1 131433Z 11011KT 24/13 A3022 RMK A01 T02370132  RH  052%=      5-min Rain = 0
KSC1 131434Z 12011KT 24/13 A3022 RMK A01 T02360132  RH  052%=      5-min Rain = 0
KSC1 131435Z 11011KT 24/13 A3022 RMK A01 T02360131  RH  052%=      5-min Rain = 0
KSC1 131436Z 11011KT 24/13 A3022 RMK A01 T02360130  RH  051%=      5-min Rain = 0
KSC1 131437Z 11013KT 24/13 A3022 RMK A01 T02350129  RH  051%=      5-min Rain = 0
KSC1 131438Z 11012KT 23/13 A3022 RMK A01 T02330128  RH  052%=      5-min Rain = 0
KSC1 131439Z 11011KT 23/13 A3022 RMK A01 T02330130  RH  052%=      5-min Rain = 0
KSC1 131440Z 12011KT 23/13 A3022 RMK A01 T02340130  RH  052%=      5-min Rain = 0
KSC1 131441Z 11011KT 24/13 A3022 RMK A01 T02350129  RH  051%=      5-min Rain = 0
KSC1 131442Z 12012KT 24/13 A3022 RMK A01 T02360130  RH  051%=      5-min Rain = 0
KSC1 131443Z 12012KT 24/13 A3022 RMK A01 T02370129  RH  051%=      5-min Rain = 0
KSC1 131444Z 12012KT 24/13 A3022 RMK A01 T02370129  RH  051%=      5-min Rain = 0
KSC1 131445Z 11011KT 24/13 A3022 RMK A01 T02360128  RH  051%=      5-min Rain = 0
KSC1 131446Z 11009KT 24/13 A3022 RMK A01 T02350129  RH  052%=      5-min Rain = 0
KSC1 131447Z 12008KT 24/13 A3022 RMK A01 T02360131  RH  052%=      5-min Rain = 0
KSC1 131448Z 13011KT 24/13 A3022 RMK A01 T02390133  RH  052%=      5-min Rain = 0
KSC1 131449Z 12008KT 24/13 A3022 RMK A01 T02400133  RH  051%=      5-min Rain = 0
KSC1 131450Z 11010KT 24/13 A3022 RMK A01 T02410133  RH  051%=      5-min Rain = 0
KSC1 131451Z 10011KT 24/13 A3022 RMK A01 T02420132  RH  050%=      5-min Rain = 0
KSC1 131452Z 10009KT 24/13 A3022 RMK A01 T02430133  RH  050%=      5-min Rain = 0
KSC1 131453Z 11010KT 24/13 A3022 RMK A01 T02430133  RH  050%=      5-min Rain = 0
KSC1 131454Z 09008KT 24/13 A3022 RMK A01 T02430134  RH  051%=      5-min Rain = 0
KSC1 131455Z 09010KT 24/13 A3022 RMK A01 T02440134  RH  050%=      5-min Rain = 0
KSC1 131456Z 10012KT 25/13 A3022 RMK A01 T02450134  RH  050%=      5-min Rain = 0
KSC1 131457Z 11011KT 25/13 A3022 RMK A01 T02450134  RH  050%=      5-min Rain = 0
KSC1 131458Z 11008KT 25/13 A3022 RMK A01 T02450133  RH  050%=      5-min Rain = 0
KSC1 131459Z 10008KT 25/14 A3022 RMK A01 T02450138  RH  051%=      5-min Rain = 0
KSC1 131500Z 09010KT 25/14 A3022 RMK A01 T02470135  RH  050%=      5-min Rain = 0
KSC1 131501Z 09010KT 25/14 A3022 RMK A01 T02460135  RH  050%=      5-min Rain = 0
KSC1 131502Z 10009KT 25/14 A3022 RMK A01 T02450135  RH  050%=      5-min Rain = 0
KSC1 131503Z 10010KT 25/14 A3022 RMK A01 T02450136  RH  051%=      5-min Rain = 0
KSC1 131504Z 11009KT 25/14 A3022 RMK A01 T02460137  RH  050%=      5-min Rain = 0
KSC1 131505Z 12008KT 25/14 A3022 RMK A01 T02470138  RH  051%=      5-min Rain = 0
KSC1 131506Z 12008KT 25/14 A3022 RMK A01 T02480137  RH  050%=      5-min Rain = 0
KSC1 131507Z 10008KT 25/14 A3022 RMK A01 T02470137  RH  051%=      5-min Rain = 0
KSC1 131508Z 11009KT 25/14 A3022 RMK A01 T02480139  RH  051%=      5-min Rain = 0
KSC1 131509Z 11008KT 25/14 A3022 RMK A01 T02500139  RH  050%=      5-min Rain = 0
KSC1 131510Z 10010KT 25/14 A3022 RMK A01 T02490137  RH  050%=      5-min Rain = 0
KSC1 131511Z 11008KT 25/14 A3022 RMK A01 T02450136  RH  051%=      5-min Rain = 0
KSC1 131512Z 09013KT 24/14 A3022 RMK A01 T02440137  RH  051%=      5-min Rain = 0
KSC1 131513Z 10010KT 24/14 A3022 RMK A01 T02440136  RH  051%=      5-min Rain = 0
KSC1 131514Z 09009KT 24/14 A3022 RMK A01 T02440137  RH  051%=      5-min Rain = 0
KSC1 131515Z 11008KT 25/14 A3022 RMK A01 T02470141  RH  052%=      5-min Rain = 0
KSC1 131516Z 10011KT 25/14 A3022 RMK A01 T02510141  RH  051%=      5-min Rain = 0
KSC1 131517Z 10011KT 25/14 A3022 RMK A01 T02510139  RH  050%=      5-min Rain = 0
KSC1 131518Z 11011KT 25/14 A3022 RMK A01 T02500140  RH  050%=      5-min Rain = 0
KSC1 131519Z 11010KT 25/14 A3021 RMK A01 T02490139  RH  050%=      5-min Rain = 0
KSC1 131520Z 11008KT 25/14 A3021 RMK A01 T02490140  RH  051%=      5-min Rain = 0
KSC1 131521Z 11010KT 25/14 A3021 RMK A01 T02490140  RH  051%=      5-min Rain = 0
KSC1 131522Z 09008KT 25/14 A3021 RMK A01 T02500143  RH  051%=      5-min Rain = 0
KSC1 131523Z 09011KT 25/14 A3021 RMK A01 T02540143  RH  050%=      5-min Rain = 0
KSC1 131524Z 12008KT 25/14 A3021 RMK A01 T02540143  RH  050%=      5-min Rain = 0
KSC1 131525Z 12007KT 26/14 A3021 RMK A01 T02550143  RH  050%=      5-min Rain = 0
KSC1 131526Z 10010KT 26/14 A3021 RMK A01 T02560144  RH  050%=      5-min Rain = 0
KSC1 131527Z 11009KT 26/14 A3021 RMK A01 T02570142  RH  049%=      5-min Rain = 0
KSC1 131528Z 12007KT 26/14 A3021 RMK A01 T02560144  RH  050%=      5-min Rain = 0
KSC1 131529Z 10007KT 26/14 A3021 RMK A01 T02560144  RH  050%=      5-min Rain = 0
KSC1 131530Z 11008G13KT 26/15 A3021 RMK A01 T02590147  RH  050%=      5-min Rain = 0
KSC1 131531Z 13009KT 26/15 A3021 RMK A01 T02600145  RH  049%=      5-min Rain = 0
KSC1 131532Z 14010KT 26/14 A3021 RMK A01 T02580142  RH  049%=      5-min Rain = 0
KSC1 131533Z 12008G13KT 26/14 A3021 RMK A01 T02560144  RH  050%=      5-min Rain = 0
KSC1 131534Z 10008KT 26/14 A3021 RMK A01 T02570144  RH  050%=      5-min Rain = 0
KSC1 131535Z 11009KT 26/14 A3021 RMK A01 T02580144  RH  049%=      5-min Rain = 0
KSC1 131536Z 12008KT 26/14 A3021 RMK A01 T02570144  RH  049%=      5-min Rain = 0
KSC1 131537Z 12008KT 26/15 A3021 RMK A01 T02580146  RH  050%=      5-min Rain = 0
KSC1 131538Z 14008KT 26/15 A3021 RMK A01 T02610146  RH  049%=      5-min Rain = 0
KSC1 131539Z 12009KT 26/14 A3021 RMK A01 T02610144  RH  048%=      5-min Rain = 0
KSC1 131540Z 11007KT 26/14 A3021 RMK A01 T02600144  RH  049%=      5-min Rain = 0
KSC1 131541Z 11007KT 26/15 A3021 RMK A01 T02600145  RH  049%=      5-min Rain = 0
KSC1 131542Z 12008KT 26/14 A3021 RMK A01 T02600143  RH  048%=      5-min Rain = 0
KSC1 131543Z 12008KT 26/15 A3021 RMK A01 T02600145  RH  049%=      5-min Rain = 0
KSC1 131544Z 13007KT 26/14 A3021 RMK A01 T02600144  RH  049%=      5-min Rain = 0
KSC1 131545Z 12006KT 26/15 A302 RMK A01 T02600145  RH  049%=      5-min Rain = 0
KSC1 131546Z 11009KT 26/15 A302 RMK A01 T02620146  RH  049%=      5-min Rain = 0
KSC1 131547Z 13009KT 26/15 A302 RMK A01 T02640147  RH  049%=      5-min Rain = 0
KSC1 131548Z 13009KT 26/14 A302 RMK A01 T02630143  RH  048%=      5-min Rain = 0
KSC1 131549Z 12011KT 26/15 A302 RMK A01 T02600145  RH  049%=      5-min Rain = 0
KSC1 131550Z 11013KT 26/14 A302 RMK A01 T02600144  RH  049%=      5-min Rain = 0
KSC1 131551Z 12010KT 26/14 A302 RMK A01 T02590143  RH  049%=      5-min Rain = 0
KSC1 131552Z 12008KT 26/15 A302 RMK A01 T02590146  RH  050%=      5-min Rain = 0
KSC1 131553Z 11010KT 26/15 A302 RMK A01 T02620148  RH  049%=      5-min Rain = 0
KSC1 131554Z 11014KT 26/15 A302 RMK A01 T02640146  RH  048%=      5-min Rain = 0
KSC1 131555Z 12013KT 26/15 A3021 RMK A01 T02610145  RH  049%=      5-min Rain = 0
KSC1 131556Z 12012KT 26/14 A302 RMK A01 T02590143  RH  049%=      5-min Rain = 0
KSC1 131557Z 11011KT 26/14 A302 RMK A01 T02560144  RH  050%=      5-min Rain = 0
KSC1 131558Z 11009KT 26/14 A302 RMK A01 T02560144  RH  050%=      5-min Rain = 0
KSC1 131559Z 14007KT 26/15 A302 RMK A01 T02580146  RH  050%=      5-min Rain = 0
KSC1 131600Z 14008KT 26/15 A302 RMK A01 T02610147  RH  049%=      5-min Rain = 0
KSC1 131601Z 13011KT 26/15 A302 RMK A01 T02620146  RH  049%=      5-min Rain = 0
KSC1 131602Z 13010KT 26/15 A302 RMK A01 T02610146  RH  049%=      5-min Rain = 0
KSC1 131603Z 13006KT 26/14 A302 RMK A01 T02590144  RH  049%=      5-min Rain = 0
KSC1 131604Z 14008KT 26/14 A302 RMK A01 T02570144  RH  050%=      5-min Rain = 0
KSC1 131605Z 13008G13KT 26/15 A302 RMK A01 T02570146  RH  051%=      5-min Rain = 0
KSC1 131606Z 13010KT 26/15 A302 RMK A01 T02600148  RH  050%=      5-min Rain = 0
KSC1 131607Z 12010KT 26/15 A302 RMK A01 T02620147  RH  049%=      5-min Rain = 0
KSC1 131608Z 11009KT 26/15 A302 RMK A01 T02620146  RH  049%=      5-min Rain = 0
KSC1 131609Z 12009KT 26/15 A302 RMK A01 T02610145  RH  049%=      5-min Rain = 0
KSC1 131610Z 14008KT 26/15 A302 RMK A01 T02600147  RH  050%=      5-min Rain = 0
KSC1 131611Z 14008KT 26/15 A302 RMK A01 T02620146  RH  049%=      5-min Rain = 0
KSC1 131612Z 12008KT 26/15 A302 RMK A01 T02620145  RH  049%=      5-min Rain = 0
KSC1 131613Z 11009KT 26/15 A302 RMK A01 T02610145  RH  049%=      5-min Rain = 0
KSC1 131614Z 13009KT 26/15 A302 RMK A01 T02620146  RH  049%=      5-min Rain = 0
KSC1 131615Z 14009KT 26/15 A302 RMK A01 T02630149  RH  049%=      5-min Rain = 0
KSC1 131616Z 13006KT 27/15 A302 RMK A01 T02650148  RH  049%=      5-min Rain = 0
KSC1 131617Z 11007KT 26/15 A302 RMK A01 T02640147  RH  049%=      5-min Rain = 0
KSC1 131618Z 11008KT 27/15 A302 RMK A01 T02650151  RH  050%=      5-min Rain = 0
KSC1 131619Z 11009KT 27/15 A302 RMK A01 T02690154  RH  049%=      5-min Rain = 0
KSC1 131620Z 11010KT 27/15 A302 RMK A01 T02710151  RH  048%=      5-min Rain = 0
KSC1 131621Z 11010KT 27/15 A302 RMK A01 T02700152  RH  048%=      5-min Rain = 0
KSC1 131622Z 12011KT 27/15 A302 RMK A01 T02700152  RH  048%=      5-min Rain = 0
KSC1 131623Z 12011KT 27/15 A302 RMK A01 T02680149  RH  048%=      5-min Rain = 0
KSC1 131624Z 11010KT 26/15 A302 RMK A01 T02640149  RH  049%=      5-min Rain = 0
KSC1 131625Z 11011KT 26/15 A302 RMK A01 T02640152  RH  050%=      5-min Rain = 0
KSC1 131626Z 10012KT 27/15 A302 RMK A01 T02660152  RH  050%=      5-min Rain = 0
KSC1 131627Z 11011KT 27/15 A302 RMK A01 T02660151  RH  049%=      5-min Rain = 0
KSC1 131628Z 11008KT 27/15 A302 RMK A01 T02650150  RH  049%=      5-min Rain = 0
KSC1 131629Z 10009KT 26/15 A302 RMK A01 T02640153  RH  050%=      5-min Rain = 0
KSC1 131630Z 11011KT 27/15 A302 RMK A01 T02660153  RH  050%=      5-min Rain = 0
KSC1 131631Z 11012KT 27/15 A302 RMK A01 T02680153  RH  049%=      5-min Rain = 0
KSC1 131632Z 11010G15KT 27/15 A302 RMK A01 T02680151  RH  049%=      5-min Rain = 0
KSC1 131633Z 09009KT 27/15 A302 RMK A01 T02670152  RH  050%=      5-min Rain = 0
KSC1 131634Z 12010KT 27/15 A302 RMK A01 T02670154  RH  050%=      5-min Rain = 0
KSC1 131635Z 12011KT 27/16 A302 RMK A01 T02700155  RH  049%=      5-min Rain = 0
KSC1 131636Z 12009KT 27/15 A302 RMK A01 T02700154  RH  049%=      5-min Rain = 0
KSC1 131637Z 11010KT 27/16 A302 RMK A01 T02710156  RH  049%=      5-min Rain = 0
KSC1 131638Z 12011KT 27/16 A302 RMK A01 T02710155  RH  049%=      5-min Rain = 0
KSC1 131639Z 13012KT 27/16 A302 RMK A01 T02720155  RH  049%=      5-min Rain = 0
KSC1 131640Z 12010KT 27/15 A302 RMK A01 T02700154  RH  049%=      5-min Rain = 0
KSC1 131641Z 11007KT 27/16 A302 RMK A01 T02690155  RH  050%=      5-min Rain = 0
KSC1 131642Z 10004G9KT 27/16 A302 RMK A01 T02710157  RH  050%=      5-min Rain = 0
KSC1 131643Z 11007KT 27/16 A302 RMK A01 T02740158  RH  049%=      5-min Rain = 0
KSC1 131644Z 12011KT 28/16 A302 RMK A01 T02750158  RH  049%=      5-min Rain = 0
KSC1 131645Z 12011KT 27/16 A302 RMK A01 T02740157  RH  049%=      5-min Rain = 0
KSC1 131646Z 10010KT 27/16 A302 RMK A01 T02740156  RH  049%=      5-min Rain = 0
KSC1 131647Z 10009KT 27/16 A302 RMK A01 T02740156  RH  048%=      5-min Rain = 0
KSC1 131648Z 10011KT 27/16 A302 RMK A01 T02730155  RH  049%=      5-min Rain = 0
KSC1 131649Z 07010KT 27/16 A302 RMK A01 T02720155  RH  049%=      5-min Rain = 0
KSC1 131650Z 09008KT 27/16 A3019 RMK A01 T02700156  RH  050%=      5-min Rain = 0
KSC1 131651Z 12010KT 27/16 A302 RMK A01 T02700156  RH  050%=      5-min Rain = 0
KSC1 131652Z 11010KT 27/16 A302 RMK A01 T02720158  RH  050%=      5-min Rain = 0
KSC1 131653Z 11009KT 27/16 A302 RMK A01 T02740158  RH  049%=      5-min Rain = 0
KSC1 131654Z 13008KT 28/16 A302 RMK A01 T02750158  RH  049%=      5-min Rain = 0
KSC1 131655Z 16006KT 28/16 A302 RMK A01 T02750160  RH  049%=      5-min Rain = 0
KSC1 131656Z 17004KT 27/16 A302 RMK A01 T02740159  RH  049%=      5-min Rain = 0
KSC1 131657Z 13007KT 27/16 A302 RMK A01 T02720160  RH  050%=      5-min Rain = 0
KSC1 131658Z 12006KT 27/16 A3019 RMK A01 T02740160  RH  050%=      5-min Rain = 0
KSC1 131659Z 11008KT 28/16 A3019 RMK A01 T02770160  RH  049%=      5-min Rain = 0
KSC1 131700Z 10009KT 28/16 A3019 RMK A01 T02770158  RH  048%=      5-min Rain = 0
KSC1 131701Z 09008KT 28/16 A3019 RMK A01 T02760159  RH  049%=      5-min Rain = 0
KSC1 131702Z 12009G15KT 28/16 A3019 RMK A01 T02770161  RH  049%=      5-min Rain = 0
KSC1 131703Z 13012KT 28/16 A3019 RMK A01 T02800161  RH  048%=      5-min Rain = 0
KSC1 131704Z 13010KT 28/16 A3019 RMK A01 T02800160  RH  048%=      5-min Rain = 0
KSC1 131705Z 13008KT 28/16 A3019 RMK A01 T02780161  RH  049%=      5-min Rain = 0
KSC1 131706Z 16007KT 28/16 A3019 RMK A01 T02780160  RH  049%=      5-min Rain = 0
KSC1 131707Z 13006KT 28/16 A3019 RMK A01 T02770160  RH  049%=      5-min Rain = 0
KSC1 131708Z 12004KT 28/16 A3019 RMK A01 T02770162  RH  049%=      5-min Rain = 0
KSC1 131709Z 10010KT 28/16 A3019 RMK A01 T02790161  RH  049%=      5-min Rain = 0
KSC1 131710Z 12009KT 28/16 A3019 RMK A01 T02800163  RH  049%=      5-min Rain = 0
KSC1 131711Z 11009KT 28/16 A3019 RMK A01 T02800162  RH  049%=      5-min Rain = 0
KSC1 131712Z 15007KT 28/16 A3019 RMK A01 T02790164  RH  049%=      5-min Rain = 0
KSC1 131713Z 12006KT 28/16 A3019 RMK A01 T02800163  RH  049%=      5-min Rain = 0
KSC1 131714Z 11005KT 28/16 A3019 RMK A01 T02810162  RH  049%=      5-min Rain = 0
KSC1 131715Z 11008KT 28/16 A3019 RMK A01 T02810162  RH  049%=      5-min Rain = 0
KSC1 131716Z 14009KT 28/16 A3019 RMK A01 T02810164  RH  049%=      5-min Rain = 0
KSC1 131717Z 12007KT 28/16 A3019 RMK A01 T02810162  RH  048%=      5-min Rain = 0
KSC1 131718Z 14007KT 28/16 A3019 RMK A01 T02800163  RH  049%=      5-min Rain = 0
KSC1 131719Z 16008KT 28/16 A3019 RMK A01 T02800163  RH  049%=      5-min Rain = 0
KSC1 131720Z 15009KT 28/16 A3018 RMK A01 T02800163  RH  049%=      5-min Rain = 0
KSC1 131721Z 14013KT 28/16 A3019 RMK A01 T02820163  RH  049%=      5-min Rain = 0
KSC1 131722Z 15009KT 28/16 A3019 RMK A01 T02830162  RH  048%=      5-min Rain = 0
KSC1 131723Z 14009KT 28/16 A3018 RMK A01 T02830162  RH  048%=      5-min Rain = 0
KSC1 131724Z 15011KT 28/16 A3018 RMK A01 T02800160  RH  048%=      5-min Rain = 0
KSC1 131725Z 14010G16KT 28/16 A3018 RMK A01 T02780161  RH  049%=      5-min Rain = 0
KSC1 131731Z 15004G9KT 28/16 A3018 RMK A01 T02810161  RH  048%=      5-min Rain = 0
KSC1 131732Z 12007KT 28/16 A3018 RMK A01 T02790162  RH  049%=      5-min Rain = 0
KSC1 131733Z 13007KT 28/16 A3018 RMK A01 T02770159  RH  049%=      5-min Rain = 0
KSC1 131734Z 12006KT 28/16 A3018 RMK A01 T02750160  RH  050%=      5-min Rain = 0
KSC1 131735Z 13008G14KT 27/16 A3018 RMK A01 T02740162  RH  051%=      5-min Rain = 0
KSC1 131736Z 12011KT 27/16 A3018 RMK A01 T02730162  RH  051%=      5-min Rain = 0
KSC1 131737Z 12012KT 27/16 A3018 RMK A01 T02720161  RH  051%=      5-min Rain = 0
KSC1 131738Z 13007KT 27/16 A3018 RMK A01 T02710162  RH  051%=      5-min Rain = 0
KSC1 131739Z 13007KT 28/17 A3018 RMK A01 T02750167  RH  052%=      5-min Rain = 0
KSC1 131740Z 15009KT 28/17 A3018 RMK A01 T02820167  RH  050%=      5-min Rain = 0
KSC1 131741Z 16009KT 29/17 A3018 RMK A01 T02850166  RH  049%=      5-min Rain = 0
KSC1 131742Z 18010KT 29/17 A3018 RMK A01 T02870165  RH  048%=      5-min Rain = 0
KSC1 131743Z 17009KT 29/17 A3018 RMK A01 T02870165  RH  048%=      5-min Rain = 0
KSC1 131744Z 17005KT 29/16 A3018 RMK A01 T02860164  RH  048%=      5-min Rain = 0
KSC1 131745Z 16005G10KT 29/17 A3018 RMK A01 T02860165  RH  048%=      5-min Rain = 0
KSC1 131746Z 12009KT 29/17 A3018 RMK A01 T02870166  RH  048%=      5-min Rain = 0
KSC1 131747Z 12006KT 29/17 A3018 RMK A01 T02890167  RH  048%=      5-min Rain = 0
KSC1 131748Z 14008KT 29/17 A3018 RMK A01 T02930170  RH  048%=      5-min Rain = 0
KSC1 131749Z 13009KT 29/17 A3018 RMK A01 T02930165  RH  046%=      5-min Rain = 0
KSC1 131750Z 13007KT 29/16 A3018 RMK A01 T02900164  RH  047%=      5-min Rain = 0
KSC1 131751Z 13006G12KT 29/17 A3018 RMK A01 T02890168  RH  048%=      5-min Rain = 0
KSC1 131752Z 13010KT 29/16 A3018 RMK A01 T02910164  RH  046%=      5-min Rain = 0
KSC1 131753Z 11008KT 29/16 A3018 RMK A01 T02860161  RH  047%=      5-min Rain = 0
KSC1 131754Z 11007KT 29/16 A3018 RMK A01 T02850163  RH  048%=      5-min Rain = 0
KSC1 131755Z 09006KT 29/16 A3018 RMK A01 T02850162  RH  047%=      5-min Rain = 0
KSC1 131756Z 12007KT 29/16 A3018 RMK A01 T02860164  RH  048%=      5-min Rain = 0
KSC1 131757Z 12008KT 29/16 A3018 RMK A01 T02870164  RH  047%=      5-min Rain = 0
KSC1 131758Z 16006KT 29/17 A3018 RMK A01 T02880165  RH  047%=      5-min Rain = 0
KSC1 131759Z 12006KT 29/16 A3018 RMK A01 T02890163  RH  047%=      5-min Rain = 0
KSC1 131800Z 12006KT 29/16 A3018 RMK A01 T02870160  RH  046%=      5-min Rain = 0
KSC1 131801Z 11006KT 28/16 A3018 RMK A01 T02830161  RH  047%=      5-min Rain = 0
KSC1 131802Z 11009KT 28/16 A3017 RMK A01 T02840163  RH  048%=      5-min Rain = 0
KSC1 131803Z 10011KT 29/17 A3017 RMK A01 T02880165  RH  047%=      5-min Rain = 0
KSC1 131804Z 13010KT 29/17 A3017 RMK A01 T02910166  RH  047%=      5-min Rain = 0
KSC1 131805Z 13009KT 29/16 A3017 RMK A01 T02920164  RH  046%=      5-min Rain = 0
KSC1 131806Z 14008KT 29/16 A3017 RMK A01 T02880161  RH  046%=      5-min Rain = 0
KSC1 131807Z 15006KT 28/16 A3017 RMK A01 T02840161  RH  047%=      5-min Rain = 0
KSC1 131808Z 12009KT 28/16 A3017 RMK A01 T02830163  RH  048%=      5-min Rain = 0
KSC1 131809Z 11009KT 29/17 A3017 RMK A01 T02860166  RH  048%=      5-min Rain = 0
KSC1 131810Z 17008G13KT 29/17 A3017 RMK A01 T02910169  RH  048%=      5-min Rain = 0
KSC1 131811Z 17009KT 30/17 A3017 RMK A01 T02960165  RH  045%=      5-min Rain = 0
KSC1 131812Z 15009KT 30/16 A3017 RMK A01 T02950163  RH  045%=      5-min Rain = 0
KSC1 131813Z 13009KT 29/16 A3017 RMK A01 T02940163  RH  045%=      5-min Rain = 0
KSC1 131814Z 15009G15KT 29/16 A3017 RMK A01 T02930163  RH  045%=      5-min Rain = 0
KSC1 131815Z 15009KT 29/16 A3017 RMK A01 T02940164  RH  045%=      5-min Rain = 0
KSC1 131816Z 14007KT 30/16 A3017 RMK A01 T02960162  RH  045%=      5-min Rain = 0
KSC1 131817Z 15006KT 30/16 A3017 RMK A01 T02960164  RH  045%=      5-min Rain = 0
KSC1 131818Z 10008KT 30/16 A3017 RMK A01 T02980163  RH  044%=      5-min Rain = 0
KSC1 131819Z 11007KT 30/16 A3017 RMK A01 T02960162  RH  044%=      5-min Rain = 0
KSC1 131820Z 11007KT 30/16 A3017 RMK A01 T02950162  RH  045%=      5-min Rain = 0
KSC1 131821Z 13008KT 29/16 A3017 RMK A01 T02940163  RH  045%=      5-min Rain = 0
KSC1 131822Z 14009KT 29/16 A3017 RMK A01 T02920161  RH  045%=      5-min Rain = 0
KSC1 131823Z 12008KT 29/16 A3017 RMK A01 T02900161  RH  046%=      5-min Rain = 0
KSC1 131824Z 11007KT 29/16 A3017 RMK A01 T02890163  RH  046%=      5-min Rain = 0
KSC1 131825Z 11009KT 29/17 A3017 RMK A01 T02930166  RH  046%=      5-min Rain = 0
KSC1 131826Z 13012G17KT 30/16 A3016 RMK A01 T02970163  RH  044%=      5-min Rain = 0
KSC1 131827Z 13011KT 30/16 A3016 RMK A01 T02970162  RH  044%=      5-min Rain = 0
KSC1 131828Z 11010KT 30/16 A3016 RMK A01 T02960161  RH  044%=      5-min Rain = 0
KSC1 131829Z 12007KT 30/16 A3016 RMK A01 T02950162  RH  044%=      5-min Rain = 0
KSC1 131830Z 13006KT 30/16 A3016 RMK A01 T02960164  RH  045%=      5-min Rain = 0
KSC1 131831Z 14007G12KT 30/16 A3016 RMK A01 T02970162  RH  044%=      5-min Rain = 0
KSC1 131832Z 16011KT 30/16 A3016 RMK A01 T02970162  RH  044%=      5-min Rain = 0
KSC1 131833Z 12008KT 29/16 A3016 RMK A01 T02940160  RH  044%=      5-min Rain = 0
KSC1 131834Z 11008KT 29/16 A3016 RMK A01 T02930161  RH  045%=      5-min Rain = 0
KSC1 131835Z 11009KT 29/16 A3016 RMK A01 T02920162  RH  046%=      5-min Rain = 0
KSC1 131836Z 12009G14KT 29/16 A3016 RMK A01 T02940163  RH  045%=      5-min Rain = 0
KSC1 131837Z 14009KT 29/16 A3016 RMK A01 T02940163  RH  045%=      5-min Rain = 0
KSC1 131838Z 15011KT 30/16 A3016 RMK A01 T02950162  RH  045%=      5-min Rain = 0
KSC1 131839Z 15010KT 29/16 A3016 RMK A01 T02930161  RH  045%=      5-min Rain = 0
KSC1 131840Z 12010KT 29/16 A3016 RMK A01 T02910161  RH  045%=      5-min Rain = 0
KSC1 131841Z 11012KT 29/16 A3016 RMK A01 T02900163  RH  046%=      5-min Rain = 0
KSC1 131842Z 13010KT 29/17 A3016 RMK A01 T02930165  RH  046%=      5-min Rain = 0
KSC1 131843Z 12008KT 30/17 A3016 RMK A01 T02980166  RH  045%=      5-min Rain = 0
KSC1 131844Z 13008KT 30/16 A3015 RMK A01 T03000163  RH  044%=      5-min Rain = 0
KSC1 131845Z 14010KT 30/17 A3015 RMK A01 T03000165  RH  044%=      5-min Rain = 0
KSC1 131846Z 17009G14KT 30/16 A3015 RMK A01 T02990163  RH  044%=      5-min Rain = 0
KSC1 131847Z 16012KT 30/16 A3015 RMK A01 T02990161  RH  043%=      5-min Rain = 0
KSC1 131848Z 16009KT 30/16 A3015 RMK A01 T02990161  RH  043%=      5-min Rain = 0
KSC1 131849Z 15007G14KT 30/16 A3015 RMK A01 T02990162  RH  044%=      5-min Rain = 0
KSC1 131850Z 16010G16KT 30/16 A3015 RMK A01 T02990161  RH  043%=      5-min Rain = 0
KSC1 131851Z 16006KT 30/16 A3015 RMK A01 T02960161  RH  044%=      5-min Rain = 0
KSC1 131852Z 15006KT 29/16 A3015 RMK A01 T02930162  RH  045%=      5-min Rain = 0
KSC1 131853Z 12009G16KT 29/16 A3015 RMK A01 T02920163  RH  046%=      5-min Rain = 0
KSC1 131854Z 13014KT 29/16 A3015 RMK A01 T02910162  RH  046%=      5-min Rain = 0
KSC1 131855Z 13012KT 29/16 A3015 RMK A01 T02910163  RH  046%=      5-min Rain = 0
KSC1 131856Z 13010KT 29/16 A3015 RMK A01 T02930163  RH  045%=      5-min Rain = 0
KSC1 131857Z 13010G15KT 30/16 A3015 RMK A01 T02960164  RH  045%=      5-min Rain = 0
KSC1 131858Z 12012KT 30/17 A3015 RMK A01 T02980165  RH  045%=      5-min Rain = 0
KSC1 131859Z 13011KT 30/16 A3015 RMK A01 T02990163  RH  044%=      5-min Rain = 0
KSC1 131900Z 14007KT 30/16 A3015 RMK A01 T02960163  RH  045%=      5-min Rain = 0
KSC1 131901Z 15009KT 30/16 A3014 RMK A01 T02950163  RH  045%=      5-min Rain = 0
KSC1 131902Z 11011KT 30/16 A3015 RMK A01 T02970164  RH  045%=      5-min Rain = 0
KSC1 131903Z 12011KT 30/16 A3014 RMK A01 T02970161  RH  044%=      5-min Rain = 0
KSC1 131904Z 14006KT 29/16 A3014 RMK A01 T02940159  RH  044%=      5-min Rain = 0
KSC1 131905Z 18009KT 29/16 A3014 RMK A01 T02920162  RH  045%=      5-min Rain = 0
KSC1 131906Z 17008KT 30/17 A3014 RMK A01 T02960165  RH  045%=      5-min Rain = 0
KSC1 131907Z 16010KT 30/16 A3014 RMK A01 T02990159  RH  043%=      5-min Rain = 0
KSC1 131908Z 14011KT 30/16 A3014 RMK A01 T02980161  RH  044%=      5-min Rain = 0
KSC1 131909Z 14007KT 30/16 A3014 RMK A01 T02980160  RH  043%=      5-min Rain = 0
KSC1 131910Z 13007KT 30/16 A3014 RMK A01 T02980164  RH  044%=      5-min Rain = 0
KSC1 131911Z 14011KT 30/16 A3014 RMK A01 T03000162  RH  043%=      5-min Rain = 0
KSC1 131912Z 13011KT 30/16 A3014 RMK A01 T02980162  RH  044%=      5-min Rain = 0
KSC1 131913Z 14012KT 30/16 A3014 RMK A01 T02970163  RH  044%=      5-min Rain = 0
KSC1 131914Z 14013KT 29/16 A3014 RMK A01 T02930159  RH  044%=      5-min Rain = 0
KSC1 131915Z 15010KT 29/16 A3014 RMK A01 T02890158  RH  045%=      5-min Rain = 0
KSC1 131916Z 15009KT 29/16 A3014 RMK A01 T02860159  RH  046%=      5-min Rain = 0
KSC1 131917Z 12011G17KT 29/16 A3014 RMK A01 T02900162  RH  046%=      5-min Rain = 0
KSC1 131918Z 14009KT 29/16 A3014 RMK A01 T02940163  RH  045%=      5-min Rain = 0
KSC1 131919Z 16009KT 30/16 A3014 RMK A01 T02990164  RH  044%=      5-min Rain = 0
KSC1 131920Z 15007KT 30/16 A3014 RMK A01 T03010163  RH  044%=      5-min Rain = 0
KSC1 131921Z 13008KT 30/16 A3014 RMK A01 T03000163  RH  043%=      5-min Rain = 0
KSC1 131922Z 12010KT 30/16 A3013 RMK A01 T03000162  RH  043%=      5-min Rain = 0
KSC1 131923Z 12009KT 30/16 A3013 RMK A01 T02970159  RH  043%=      5-min Rain = 0
KSC1 131924Z 14010KT 29/16 A3013 RMK A01 T02920158  RH  044%=      5-min Rain = 0
KSC1 131925Z 13013KT 29/16 A3013 RMK A01 T02890159  RH  045%=      5-min Rain = 0
KSC1 131926Z 13011KT 29/16 A3013 RMK A01 T02900161  RH  045%=      5-min Rain = 0
KSC1 131927Z 12010KT 29/16 A3013 RMK A01 T02930163  RH  045%=      5-min Rain = 0
KSC1 131928Z 11013KT 30/16 A3013 RMK A01 T02970163  RH  044%=      5-min Rain = 0
KSC1 131929Z 11012KT 30/16 A3013 RMK A01 T02990161  RH  043%=      5-min Rain = 0
KSC1 131930Z 11009G14KT 30/16 A3013 RMK A01 T02980162  RH  044%=      5-min Rain = 0
KSC1 131931Z 11011KT 30/16 A3013 RMK A01 T03000161  RH  043%=      5-min Rain = 0
KSC1 131932Z 13012KT 30/16 A3013 RMK A01 T03020163  RH  043%=      5-min Rain = 0
KSC1 131933Z 14011KT 30/16 A3013 RMK A01 T03030162  RH  043%=      5-min Rain = 0
KSC1 131934Z 14011KT 30/16 A3013 RMK A01 T03040161  RH  042%=      5-min Rain = 0
KSC1 131935Z 14010KT 30/16 A3013 RMK A01 T03020161  RH  043%=      5-min Rain = 0
KSC1 131936Z 14010KT 30/16 A3013 RMK A01 T03030161  RH  042%=      5-min Rain = 0
KSC1 131937Z 16005KT 30/16 A3013 RMK A01 T03030162  RH  042%=      5-min Rain = 0
KSC1 131938Z 15008G13KT 30/16 A3013 RMK A01 T03040164  RH  043%=      5-min Rain = 0
KSC1 131939Z 17013KT 31/16 A3013 RMK A01 T03060164  RH  042%=      5-min Rain = 0
KSC1 131940Z 17013KT 30/16 A3013 RMK A01 T03040162  RH  042%=      5-min Rain = 0
KSC1 131941Z 16013KT 30/16 A3013 RMK A01 T03020161  RH  043%=      5-min Rain = 0
KSC1 131942Z 15010KT 30/16 A3013 RMK A01 T03020161  RH  043%=      5-min Rain = 0
KSC1 131943Z 13006KT 30/16 A3013 RMK A01 T03020160  RH  042%=      5-min Rain = 0
KSC1 131944Z 13005KT 30/16 A3013 RMK A01 T03000160  RH  043%=      5-min Rain = 0
KSC1 131945Z 10008KT 30/16 A3013 RMK A01 T03000163  RH  044%=      5-min Rain = 0
KSC1 131946Z 13008KT 30/16 A3013 RMK A01 T03040163  RH  043%=      5-min Rain = 0
KSC1 131947Z 12010KT 31/16 A3013 RMK A01 T03060161  RH  042%=      5-min Rain = 0
KSC1 131948Z 14008KT 30/16 A3013 RMK A01 T03040162  RH  043%=      5-min Rain = 0
KSC1 131949Z 13007KT 30/16 A3013 RMK A01 T03020164  RH  043%=      5-min Rain = 0
KSC1 131950Z 12005KT 30/16 A3013 RMK A01 T03020160  RH  042%=      5-min Rain = 0
KSC1 131951Z 12011G16KT 30/17 A3013 RMK A01 T03010165  RH  044%=      5-min Rain = 0
KSC1 131952Z 12012KT 31/16 A3012 RMK A01 T03050164  RH  043%=      5-min Rain = 0
KSC1 131953Z 13011KT 31/17 A3012 RMK A01 T03080165  RH  042%=      5-min Rain = 0
KSC1 131954Z 12011KT 31/16 A3012 RMK A01 T03090164  RH  042%=      5-min Rain = 0
KSC1 131955Z 14008KT 31/16 A3012 RMK A01 T03090163  RH  041%=      5-min Rain = 0
KSC1 131956Z 15010KT 31/17 A3012 RMK A01 T03110165  RH  042%=      5-min Rain = 0
KSC1 131957Z 15010KT 31/16 A3012 RMK A01 T03120163  RH  041%=      5-min Rain = 0
KSC1 131958Z 17009KT 31/16 A3012 RMK A01 T03110163  RH  041%=      5-min Rain = 0
KSC1 131959Z 17006KT 31/16 A3012 RMK A01 T03110164  RH  041%=      5-min Rain = 0
KSC1 132000Z 15007KT 31/17 A3012 RMK A01 T03130168  RH  042%=      5-min Rain = 0
KSC1 132001Z 14012KT 32/17 A3012 RMK A01 T03180169  RH  041%=      5-min Rain = 0
KSC1 132002Z 13014KT 32/16 A3012 RMK A01 T03150163  RH  040%=      5-min Rain = 0
KSC1 132003Z 12013KT 31/16 A3012 RMK A01 T03060159  RH  041%=      5-min Rain = 0
KSC1 132004Z 13010KT 30/16 A3012 RMK A01 T03000158  RH  042%=      5-min Rain = 0
KSC1 132005Z 13012KT 30/16 A3012 RMK A01 T03000161  RH  043%=      5-min Rain = 0
KSC1 132006Z 12011KT 30/16 A3011 RMK A01 T03030160  RH  042%=      5-min Rain = 0
KSC1 132007Z 13009G14KT 31/17 A3011 RMK A01 T03060165  RH  043%=      5-min Rain = 0
KSC1 132008Z 14013G18KT 31/16 A3011 RMK A01 T03090164  RH  042%=      5-min Rain = 0
KSC1 132009Z 15011KT 31/16 A3011 RMK A01 T03100164  RH  041%=      5-min Rain = 0
KSC1 132010Z 14009KT 31/16 A3011 RMK A01 T03080161  RH  041%=      5-min Rain = 0
KSC1 132011Z 13011KT 30/16 A3011 RMK A01 T03040160  RH  042%=      5-min Rain = 0
KSC1 132012Z 14008KT 30/16 A3011 RMK A01 T03000156  RH  042%=      5-min Rain = 0
KSC1 132013Z 14010KT 30/16 A3011 RMK A01 T02990158  RH  043%=      5-min Rain = 0
KSC1 132014Z 13010KT 30/16 A3011 RMK A01 T03030163  RH  043%=      5-min Rain = 0
KSC1 132015Z 13010KT 31/17 A3011 RMK A01 T03070165  RH  042%=      5-min Rain = 0
KSC1 132016Z 14008KT 31/17 A3011 RMK A01 T03110168  RH  042%=      5-min Rain = 0
KSC1 132017Z 16011KT 31/16 A3011 RMK A01 T03140164  RH  041%=      5-min Rain = 0
KSC1 132018Z 17011G16KT 31/16 A3011 RMK A01 T03140162  RH  040%=      5-min Rain = 0
KSC1 132019Z 15013KT 31/16 A3011 RMK A01 T03140160  RH  039%=      5-min Rain = 0
KSC1 132020Z 15009KT 31/16 A3011 RMK A01 T03130157  RH  039%=      5-min Rain = 0
KSC1 132021Z 13007KT 31/16 A3011 RMK A01 T03120159  RH  040%=      5-min Rain = 0
KSC1 132022Z 14006KT 31/16 A3011 RMK A01 T03090160  RH  041%=      5-min Rain = 0
KSC1 132023Z 14011KT 31/16 A3011 RMK A01 T03070162  RH  042%=      5-min Rain = 0
KSC1 132024Z 14016KT 31/16 A3011 RMK A01 T03050161  RH  042%=      5-min Rain = 0
KSC1 132025Z 14010KT 30/16 A3011 RMK A01 T03010159  RH  042%=      5-min Rain = 0
KSC1 132026Z 16011KT 30/16 A3011 RMK A01 T02990160  RH  043%=      5-min Rain = 0
KSC1 132027Z 15008G14KT 30/16 A3011 RMK A01 T02980163  RH  044%=      5-min Rain = 0
KSC1 132028Z 15013KT 30/16 A3011 RMK A01 T03000162  RH  043%=      5-min Rain = 0
KSC1 132029Z 15008KT 30/16 A3011 RMK A01 T03010161  RH  043%=      5-min Rain = 0
KSC1 132030Z 16009KT 30/16 A3011 RMK A01 T03020163  RH  043%=      5-min Rain = 0
KSC1 132031Z 16008KT 30/16 A301 RMK A01 T03040163  RH  042%=      5-min Rain = 0
KSC1 132032Z 15011KT 31/16 A301 RMK A01 T03050163  RH  043%=      5-min Rain = 0
KSC1 132033Z 14010KT 30/16 A3011 RMK A01 T03040160  RH  042%=      5-min Rain = 0
KSC1 132034Z 14007KT 30/16 A301 RMK A01 T02990158  RH  043%=      5-min Rain = 0
KSC1 132035Z 12007KT 30/16 A301 RMK A01 T02960159  RH  044%=      5-min Rain = 0
KSC1 132036Z 11008KT 30/16 A301 RMK A01 T02960161  RH  044%=      5-min Rain = 0
KSC1 132037Z 11013KT 30/16 A301 RMK A01 T03000162  RH  043%=      5-min Rain = 0
KSC1 132038Z 13006KT 31/16 A301 RMK A01 T03050164  RH  043%=      5-min Rain = 0
KSC1 132039Z 15009G14KT 31/17 A301 RMK A01 T03100167  RH  042%=      5-min Rain = 0
KSC1 132040Z 16010KT 32/17 A301 RMK A01 T03150167  RH  041%=      5-min Rain = 0
KSC1 132041Z 15011G16KT 32/16 A301 RMK A01 T03180163  RH  039%=      5-min Rain = 0
KSC1 132042Z 16013KT 32/16 A301 RMK A01 T03170162  RH  039%=      5-min Rain = 0
KSC1 132043Z 16011KT 31/16 A301 RMK A01 T03140161  RH  040%=      5-min Rain = 0
KSC1 132044Z 14009KT 31/16 A301 RMK A01 T03130163  RH  041%=      5-min Rain = 0
KSC1 132045Z 12008KT 31/16 A301 RMK A01 T03140161  RH  040%=      5-min Rain = 0
KSC1 132046Z 14009KT 31/16 A301 RMK A01 T03130162  RH  040%=      5-min Rain = 0
KSC1 132047Z 15006KT 31/17 A301 RMK A01 T03130165  RH  041%=      5-min Rain = 0
KSC1 132048Z 13013KT 32/17 A301 RMK A01 T03180168  RH  041%=      5-min Rain = 0
KSC1 132049Z 12011KT 32/16 A301 RMK A01 T03170164  RH  040%=      5-min Rain = 0
KSC1 132050Z 14013KT 31/16 A301 RMK A01 T03130163  RH  040%=      5-min Rain = 0
KSC1 132051Z 13013KT 31/16 A301 RMK A01 T03120162  RH  041%=      5-min Rain = 0
KSC1 132052Z 13009KT 31/16 A301 RMK A01 T03130161  RH  040%=      5-min Rain = 0
KSC1 132053Z 12009KT 31/16 A3009 RMK A01 T03130162  RH  040%=      5-min Rain = 0
KSC1 132054Z 13012KT 31/16 A301 RMK A01 T03130161  RH  040%=      5-min Rain = 0
KSC1 132055Z 12011KT 31/16 A301 RMK A01 T03130160  RH  040%=      5-min Rain = 0
KSC1 132056Z 12012KT 31/16 A3009 RMK A01 T03120160  RH  040%=      5-min Rain = 0
KSC1 132057Z 13012KT 31/16 A3009 RMK A01 T03120160  RH  040%=      5-min Rain = 0
KSC1 132058Z 13010G15KT 31/16 A3009 RMK A01 T03130160  RH  040%=      5-min Rain = 0
KSC1 132059Z 16011KT 32/16 A3009 RMK A01 T03160162  RH  040%=      5-min Rain = 0
KSC1 132100Z 17011KT 32/16 A3009 RMK A01 T03180162  RH  039%=      5-min Rain = 0
KSC1 132101Z 17011KT 32/16 A3009 RMK A01 T03180163  RH  040%=      5-min Rain = 0
KSC1 132102Z 15010G16KT 32/16 A3009 RMK A01 T03160163  RH  040%=      5-min Rain = 0
KSC1 132103Z 14014KT 32/16 A3009 RMK A01 T03150161  RH  039%=      5-min Rain = 0
KSC1 132104Z 15010KT 31/16 A3009 RMK A01 T03130158  RH  039%=      5-min Rain = 0
KSC1 132105Z 15009KT 31/16 A3009 RMK A01 T03110159  RH  040%=      5-min Rain = 0
KSC1 132106Z 16012G17KT 31/16 A3009 RMK A01 T03100159  RH  040%=      5-min Rain = 0
KSC1 132107Z 15012KT 31/16 A3009 RMK A01 T03070157  RH  041%=      5-min Rain = 0
KSC1 132108Z 15012KT 31/16 A3009 RMK A01 T03050158  RH  041%=      5-min Rain = 0
KSC1 132109Z 15017KT 31/16 A3009 RMK A01 T03080159  RH  041%=      5-min Rain = 0
KSC1 132110Z 16014KT 31/16 A3009 RMK A01 T03100159  RH  040%=      5-min Rain = 0
KSC1 132111Z 15012KT 31/16 A3009 RMK A01 T03090158  RH  040%=      5-min Rain = 0
KSC1 132112Z 15012KT 31/16 A3009 RMK A01 T03070159  RH  041%=      5-min Rain = 0
KSC1 132113Z 15011KT 31/16 A3009 RMK A01 T03050159  RH  041%=      5-min Rain = 0
KSC1 132114Z 14008KT 30/16 A3009 RMK A01 T03020158  RH  042%=      5-min Rain = 0
KSC1 132115Z 14010KT 30/16 A3009 RMK A01 T03000158  RH  042%=      5-min Rain = 0
KSC1 132116Z 14011KT 30/16 A3009 RMK A01 T03000157  RH  042%=      5-min Rain = 0
KSC1 132117Z 14010KT 30/16 A3009 RMK A01 T03000157  RH  042%=      5-min Rain = 0
KSC1 132118Z 14007KT 30/16 A3008 RMK A01 T03040160  RH  042%=      5-min Rain = 0
KSC1 132119Z 13011KT 31/16 A3008 RMK A01 T03080162  RH  041%=      5-min Rain = 0
KSC1 132120Z 12012KT 31/16 A3009 RMK A01 T03120162  RH  041%=      5-min Rain = 0
KSC1 132121Z 13014KT 31/16 A3008 RMK A01 T03130162  RH  040%=      5-min Rain = 0
KSC1 132122Z 13015KT 31/16 A3008 RMK A01 T03130158  RH  039%=      5-min Rain = 0
KSC1 132123Z 14010G15KT 31/16 A3008 RMK A01 T03110155  RH  039%=      5-min Rain = 0
KSC1 132124Z 16007KT 31/16 A3008 RMK A01 T03100158  RH  040%=      5-min Rain = 0
KSC1 132125Z 17009KT 31/16 A3008 RMK A01 T03120157  RH  039%=      5-min Rain = 0
KSC1 132126Z 16010KT 31/16 A3008 RMK A01 T03130156  RH  039%=      5-min Rain = 0
KSC1 132127Z 17012KT 31/16 A3008 RMK A01 T03130156  RH  039%=      5-min Rain = 0
KSC1 132128Z 16008G13KT 31/16 A3008 RMK A01 T03140158  RH  039%=      5-min Rain = 0
KSC1 132129Z 17010KT 32/16 A3008 RMK A01 T03170160  RH  039%=      5-min Rain = 0
KSC1 132130Z 17011KT 32/16 A3008 RMK A01 T03170159  RH  039%=      5-min Rain = 0
KSC1 132131Z 14013KT 32/16 A3008 RMK A01 T03150162  RH  040%=      5-min Rain = 0
KSC1 132132Z 14012KT 32/17 A3008 RMK A01 T03180165  RH  040%=      5-min Rain = 0
KSC1 132133Z 14011KT 32/16 A3008 RMK A01 T03200163  RH  039%=      5-min Rain = 0
KSC1 132134Z 14010KT 32/16 A3008 RMK A01 T03190164  RH  039%=      5-min Rain = 0
KSC1 132135Z 12012KT 32/16 A3008 RMK A01 T03180163  RH  039%=      5-min Rain = 0
KSC1 132136Z 12010KT 32/16 A3008 RMK A01 T03160162  RH  039%=      5-min Rain = 0
KSC1 132137Z 13011KT 31/16 A3008 RMK A01 T03140161  RH  040%=      5-min Rain = 0
KSC1 132138Z 15010KT 31/16 A3008 RMK A01 T03110157  RH  039%=      5-min Rain = 0
KSC1 132139Z 15008KT 31/16 A3008 RMK A01 T03090157  RH  040%=      5-min Rain = 0
KSC1 132140Z 16009KT 31/16 A3008 RMK A01 T03100157  RH  040%=      5-min Rain = 0
KSC1 132141Z 15009KT 31/15 A3008 RMK A01 T03120154  RH  039%=      5-min Rain = 0
KSC1 132142Z 15009KT 31/15 A3008 RMK A01 T03120154  RH  039%=      5-min Rain = 0
KSC1 132143Z 16011KT 31/15 A3008 RMK A01 T03130153  RH  038%=      5-min Rain = 0
KSC1 132144Z 15012KT 31/15 A3008 RMK A01 T03130154  RH  038%=      5-min Rain = 0
KSC1 132145Z 15011KT 31/15 A3008 RMK A01 T03120153  RH  038%=      5-min Rain = 0
KSC1 132146Z 15008KT 31/16 A3008 RMK A01 T03120155  RH  039%=      5-min Rain = 0
KSC1 132147Z 15006KT 31/16 A3007 RMK A01 T03130156  RH  039%=      5-min Rain = 0
KSC1 132148Z 16010KT 32/16 A3007 RMK A01 T03150158  RH  039%=      5-min Rain = 0
KSC1 132149Z 14010KT 32/16 A3007 RMK A01 T03160160  RH  039%=      5-min Rain = 0
KSC1 132150Z 13013KT 31/16 A3007 RMK A01 T03130158  RH  039%=      5-min Rain = 0
KSC1 132151Z 13011KT 31/16 A3007 RMK A01 T03080157  RH  040%=      5-min Rain = 0
KSC1 132152Z 12012KT 31/16 A3007 RMK A01 T03060159  RH  041%=      5-min Rain = 0
KSC1 132153Z 12008KT 31/16 A3007 RMK A01 T03090159  RH  040%=      5-min Rain = 0
KSC1 132154Z 14011G17KT 31/16 A3007 RMK A01 T03110160  RH  040%=      5-min Rain = 0
KSC1 132155Z 13011KT 31/16 A3007 RMK A01 T03120160  RH  040%=      5-min Rain = 0
KSC1 132156Z 12011KT 31/16 A3007 RMK A01 T03140158  RH  039%=      5-min Rain = 0
KSC1 132157Z 13013KT 31/16 A3006 RMK A01 T03140160  RH  039%=      5-min Rain = 0
KSC1 132158Z 13016KT 31/16 A3007 RMK A01 T03140159  RH  039%=      5-min Rain = 0
KSC1 132159Z 14013KT 31/16 A3007 RMK A01 T03140158  RH  039%=      5-min Rain = 0
KSC1 132200Z 15012KT 31/16 A3007 RMK A01 T03090156  RH  040%=      5-min Rain = 0
KSC1 132201Z 16013KT 31/16 A3007 RMK A01 T03070155  RH  040%=      5-min Rain = 0
KSC1 132202Z 15013KT 31/15 A3007 RMK A01 T03050152  RH  040%=      5-min Rain = 0
KSC1 132203Z 14008KT 30/15 A3006 RMK A01 T03030151  RH  040%=      5-min Rain = 0
KSC1 132204Z 15010KT 30/15 A3006 RMK A01 T03040153  RH  040%=      5-min Rain = 0
KSC1 132205Z 13008KT 31/15 A3006 RMK A01 T03070153  RH  039%=      5-min Rain = 0
KSC1 132206Z 13009KT 31/16 A3006 RMK A01 T03070155  RH  040%=      5-min Rain = 0
KSC1 132207Z 15008KT 31/16 A3006 RMK A01 T03070156  RH  040%=      5-min Rain = 0
KSC1 132208Z 15012KT 31/16 A3006 RMK A01 T03070155  RH  040%=      5-min Rain = 0
KSC1 132209Z 14009KT 31/16 A3006 RMK A01 T03080155  RH  040%=      5-min Rain = 0
KSC1 132210Z 15006KT 31/16 A3006 RMK A01 T03080158  RH  040%=      5-min Rain = 0
KSC1 132211Z 14010KT 31/16 A3006 RMK A01 T03100160  RH  040%=      5-min Rain = 0
KSC1 132212Z 14007KT 31/16 A3006 RMK A01 T03110160  RH  040%=      5-min Rain = 0
KSC1 132213Z 14008KT 31/16 A3006 RMK A01 T03130161  RH  040%=      5-min Rain = 0
KSC1 132214Z 14010KT 32/16 A3006 RMK A01 T03160159  RH  039%=      5-min Rain = 0
KSC1 132215Z 12009KT 32/16 A3006 RMK A01 T03160160  RH  039%=      5-min Rain = 0
KSC1 132216Z 13011KT 32/16 A3006 RMK A01 T03160158  RH  039%=      5-min Rain = 0
KSC1 132217Z 13013KT 32/16 A3006 RMK A01 T03160160  RH  039%=      5-min Rain = 0
KSC1 132218Z 12013KT 32/16 A3006 RMK A01 T03160158  RH  039%=      5-min Rain = 0
KSC1 132219Z 12014KT 31/16 A3006 RMK A01 T03140157  RH  039%=      5-min Rain = 0
KSC1 132220Z 13015KT 31/16 A3006 RMK A01 T03140155  RH  038%=      5-min Rain = 0
KSC1 132221Z 12013KT 31/15 A3006 RMK A01 T03120153  RH  038%=      5-min Rain = 0
KSC1 132222Z 13013KT 31/15 A3006 RMK A01 T03090151  RH  038%=      5-min Rain = 0
KSC1 132223Z 13011KT 31/15 A3006 RMK A01 T03070152  RH  039%=      5-min Rain = 0
KSC1 132224Z 14011KT 31/16 A3006 RMK A01 T03090155  RH  039%=      5-min Rain = 0
KSC1 132225Z 13008KT 31/15 A3006 RMK A01 T03110154  RH  039%=      5-min Rain = 0
KSC1 132226Z 12009KT 31/16 A3005 RMK A01 T03120155  RH  039%=      5-min Rain = 0
KSC1 132227Z 12011KT 31/16 A3005 RMK A01 T03130156  RH  039%=      5-min Rain = 0
KSC1 132228Z 11012KT 32/15 A3005 RMK A01 T03150153  RH  038%=      5-min Rain = 0
KSC1 132229Z 11012KT 32/15 A3005 RMK A01 T03150154  RH  038%=      5-min Rain = 0
KSC1 132230Z 12013KT 32/16 A3005 RMK A01 T03150157  RH  039%=      5-min Rain = 0
KSC1 132231Z 12013KT 32/16 A3005 RMK A01 T03160157  RH  039%=      5-min Rain = 0
KSC1 132232Z 12015KT 32/16 A3005 RMK A01 T03150159  RH  039%=      5-min Rain = 0
KSC1 132233Z 14013G19KT 32/16 A3005 RMK A01 T03150160  RH  039%=      5-min Rain = 0
KSC1 132234Z 13012KT 32/16 A3005 RMK A01 T03160160  RH  039%=      5-min Rain = 0
KSC1 132235Z 13012KT 32/16 A3005 RMK A01 T03150161  RH  039%=      5-min Rain = 0
KSC1 132236Z 13012KT 32/16 A3005 RMK A01 T03150160  RH  039%=      5-min Rain = 0
KSC1 132237Z 13011KT 31/16 A3005 RMK A01 T03140159  RH  039%=      5-min Rain = 0
KSC1 132238Z 12011KT 31/16 A3005 RMK A01 T03140160  RH  039%=      5-min Rain = 0
KSC1 132239Z 13012KT 31/16 A3005 RMK A01 T03140158  RH  039%=      5-min Rain = 0
KSC1 132240Z 14012G20KT 32/16 A3005 RMK A01 T03150157  RH  039%=      5-min Rain = 0
KSC1 132241Z 14014G19KT 32/15 A3005 RMK A01 T03150154  RH  038%=      5-min Rain = 0
KSC1 132242Z 15010KT 31/15 A3005 RMK A01 T03140153  RH  038%=      5-min Rain = 0
KSC1 132243Z 16012G18KT 31/15 A3004 RMK A01 T03130154  RH  038%=      5-min Rain = 0
KSC1 132244Z 15013G18KT 31/15 A3004 RMK A01 T03130154  RH  038%=      5-min Rain = 0
KSC1 132245Z 12013KT 31/16 A3004 RMK A01 T03140157  RH  039%=      5-min Rain = 0
KSC1 132246Z 13012KT 32/16 A3004 RMK A01 T03160155  RH  038%=      5-min Rain = 0
KSC1 132247Z 13012KT 31/15 A3004 RMK A01 T03140154  RH  038%=      5-min Rain = 0
KSC1 132248Z 14012G17KT 31/15 A3004 RMK A01 T03130154  RH  038%=      5-min Rain = 0
KSC1 132249Z 16011KT 31/16 A3004 RMK A01 T03130155  RH  038%=      5-min Rain = 0
KSC1 132250Z 16010KT 31/15 A3004 RMK A01 T03110152  RH  038%=      5-min Rain = 0
KSC1 132251Z 15011KT 31/15 A3004 RMK A01 T03100152  RH  038%=      5-min Rain = 0
KSC1 132252Z 16011KT 31/15 A3004 RMK A01 T03100152  RH  039%=      5-min Rain = 0
KSC1 132253Z 14008KT 31/16 A3004 RMK A01 T03110157  RH  039%=      5-min Rain = 0
KSC1 132254Z 13011G16KT 32/16 A3004 RMK A01 T03150160  RH  039%=      5-min Rain = 0
KSC1 132255Z 14010KT 32/16 A3004 RMK A01 T03160159  RH  039%=      5-min Rain = 0
KSC1 132256Z 13013G19KT 32/16 A3004 RMK A01 T03150159  RH  039%=      5-min Rain = 0
KSC1 132257Z 14013G18KT 31/16 A3004 RMK A01 T03130156  RH  039%=      5-min Rain = 0
KSC1 132258Z 13015KT 31/15 A3004 RMK A01 T03130153  RH  038%=      5-min Rain = 0
KSC1 132259Z 14014KT 31/15 A3004 RMK A01 T03120152  RH  038%=      5-min Rain = 0
KSC1 132300Z 13013KT 31/15 A3004 RMK A01 T03110152  RH  038%=      5-min Rain = 0
KSC1 132301Z 14009KT 31/15 A3004 RMK A01 T03100154  RH  039%=      5-min Rain = 0
KSC1 132302Z 14012KT 31/16 A3004 RMK A01 T03120155  RH  039%=      5-min Rain = 0
KSC1 132303Z 13012KT 31/15 A3004 RMK A01 T03130152  RH  038%=      5-min Rain = 0
KSC1 132304Z 14009KT 31/15 A3004 RMK A01 T03120153  RH  038%=      5-min Rain = 0
KSC1 132305Z 14011KT 31/15 A3004 RMK A01 T03120152  RH  038%=      5-min Rain = 0
KSC1 132306Z 14013KT 31/15 A3004 RMK A01 T03110152  RH  038%=      5-min Rain = 0
KSC1 132307Z 15012KT 31/15 A3004 RMK A01 T03110152  RH  038%=      5-min Rain = 0
KSC1 132308Z 16011G16KT 31/15 A3004 RMK A01 T03120151  RH  038%=      5-min Rain = 0
KSC1 132309Z 16013G18KT 31/15 A3004 RMK A01 T03130151  RH  038%=      5-min Rain = 0
KSC1 132310Z 16010KT 31/15 A3004 RMK A01 T03130151  RH  038%=      5-min Rain = 0
KSC1 132311Z 17008KT 31/15 A3004 RMK A01 T03130154  RH  038%=      5-min Rain = 0
KSC1 132312Z 16012KT 31/16 A3003 RMK A01 T03140155  RH  038%=      5-min Rain = 0
KSC1 132313Z 16012KT 31/15 A3003 RMK A01 T03130152  RH  038%=      5-min Rain = 0
KSC1 132314Z 14009KT 31/15 A3003 RMK A01 T03100153  RH  039%=      5-min Rain = 0
KSC1 132315Z 15012KT 31/15 A3003 RMK A01 T03080151  RH  038%=      5-min Rain = 0
KSC1 132316Z 15011KT 31/15 A3003 RMK A01 T03080151  RH  038%=      5-min Rain = 0
KSC1 132317Z 16009KT 31/15 A3003 RMK A01 T03080152  RH  039%=      5-min Rain = 0
KSC1 132318Z 16013KT 31/15 A3003 RMK A01 T03100153  RH  039%=      5-min Rain = 0
KSC1 132319Z 16013KT 31/15 A3003 RMK A01 T03110153  RH  038%=      5-min Rain = 0
KSC1 132320Z 16012KT 31/15 A3003 RMK A01 T03110153  RH  038%=      5-min Rain = 0
KSC1 132321Z 15011KT 31/15 A3003 RMK A01 T03110152  RH  038%=      5-min Rain = 0
KSC1 132322Z 16012KT 31/15 A3003 RMK A01 T03120152  RH  038%=      5-min Rain = 0
KSC1 132323Z 15011KT 31/15 A3003 RMK A01 T03120150  RH  038%=      5-min Rain = 0
KSC1 132324Z 16013G18KT 31/15 A3003 RMK A01 T03110149  RH  038%=      5-min Rain = 0
KSC1 132325Z 16011KT 31/15 A3003 RMK A01 T03100149  RH  038%=      5-min Rain = 0
KSC1 132326Z 16011KT 31/15 A3003 RMK A01 T03090149  RH  038%=      5-min Rain = 0
KSC1 132327Z 15011KT 31/15 A3002 RMK A01 T03090148  RH  038%=      5-min Rain = 0
KSC1 132328Z 15008KT 31/15 A3002 RMK A01 T03090149  RH  038%=      5-min Rain = 0
KSC1 132329Z 14008KT 31/15 A3002 RMK A01 T03090151  RH  038%=      5-min Rain = 0
KSC1 132330Z 13009KT 31/15 A3002 RMK A01 T03100153  RH  039%=      5-min Rain = 0
KSC1 132331Z 14009KT 31/15 A3002 RMK A01 T03110154  RH  039%=      5-min Rain = 0
KSC1 132332Z 13010KT 31/15 A3002 RMK A01 T03110154  RH  039%=      5-min Rain = 0
KSC1 132333Z 11010KT 31/16 A3002 RMK A01 T03100155  RH  039%=      5-min Rain = 0
KSC1 132334Z 11011KT 31/16 A3002 RMK A01 T03110156  RH  039%=      5-min Rain = 0
KSC1 132335Z 14010KT 31/16 A3002 RMK A01 T03110157  RH  039%=      5-min Rain = 0
KSC1 132336Z 13011KT 31/16 A3002 RMK A01 T03130158  RH  039%=      5-min Rain = 0
KSC1 132337Z 15014KT 31/16 A3002 RMK A01 T03140157  RH  039%=      5-min Rain = 0
KSC1 132338Z 15013KT 31/16 A3002 RMK A01 T03120156  RH  039%=      5-min Rain = 0
KSC1 132339Z 14012KT 31/16 A3002 RMK A01 T03120156  RH  039%=      5-min Rain = 0
KSC1 132340Z 15010KT 31/16 A3002 RMK A01 T03100156  RH  039%=      5-min Rain = 0
KSC1 132341Z 15011KT 31/16 A3002 RMK A01 T03100156  RH  039%=      5-min Rain = 0
KSC1 132342Z 16011KT 31/16 A3002 RMK A01 T03110157  RH  039%=      5-min Rain = 0
KSC1 132343Z 16012KT 31/16 A3002 RMK A01 T03120157  RH  039%=      5-min Rain = 0
KSC1 132344Z 17011KT 31/15 A3002 RMK A01 T03090154  RH  039%=      5-min Rain = 0
KSC1 132345Z 15010G15KT 31/16 A3002 RMK A01 T03080156  RH  040%=      5-min Rain = 0
KSC1 132346Z 15011KT 31/15 A3002 RMK A01 T03080154  RH  039%=      5-min Rain = 0
KSC1 132347Z 14012KT 31/15 A3002 RMK A01 T03080154  RH  039%=      5-min Rain = 0
KSC1 132348Z 14010KT 31/15 A3002 RMK A01 T03080154  RH  039%=      5-min Rain = 0
KSC1 132349Z 13012KT 31/16 A3002 RMK A01 T03080156  RH  040%=      5-min Rain = 0
KSC1 132350Z 12010KT 31/16 A3002 RMK A01 T03080157  RH  040%=      5-min Rain = 0
KSC1 132351Z 12010KT 31/16 A3002 RMK A01 T03080156  RH  040%=      5-min Rain = 0
KSC1 132352Z 13011KT 31/16 A3002 RMK A01 T03070155  RH  040%=      5-min Rain = 0
KSC1 132353Z 13012KT 31/16 A3002 RMK A01 T03070155  RH  040%=      5-min Rain = 0
KSC1 132354Z 13010KT 31/16 A3002 RMK A01 T03060155  RH  040%=      5-min Rain = 0
KSC1 132355Z 13012KT 30/16 A3002 RMK A01 T03040156  RH  041%=      5-min Rain = 0
KSC1 132356Z 13013KT 30/16 A3002 RMK A01 T03030156  RH  041%=      5-min Rain = 0
KSC1 132357Z 13010KT 30/16 A3002 RMK A01 T03020157  RH  042%=      5-min Rain = 0
KSC1 132358Z 13007KT 30/16 A3002 RMK A01 T03020158  RH  042%=      5-min Rain = 0
KSC1 132359Z 13009KT 30/16 A3002 RMK A01 T03020157  RH  042%=      5-min Rain = 0
KSC1 140000Z 14008KT 30/16 A3002 RMK A01 T03020158  RH  042%=      5-min Rain = 0
KSC1 140001Z 14013G18KT 30/16 A3001 RMK A01 T03020157  RH  042%=      5-min Rain = 0
KSC1 140002Z 14011KT 30/16 A3002 RMK A01 T03010157  RH  042%=      5-min Rain = 0
KSC1 140003Z 16011KT 30/16 A3002 RMK A01 T03000158  RH  042%=      5-min Rain = 0
KSC1 140004Z 15009KT 30/16 A3002 RMK A01 T03000158  RH  042%=      5-min Rain = 0
KSC1 140005Z 16010G15KT 30/16 A3002 RMK A01 T03000158  RH  042%=      5-min Rain = 0
KSC1 140006Z 15011KT 30/16 A3002 RMK A01 T02990157  RH  042%=      5-min Rain = 0
KSC1 140007Z 15012KT 30/16 A3002 RMK A01 T02980156  RH  042%=      5-min Rain = 0
KSC1 140008Z 14013G18KT 30/16 A3002 RMK A01 T02980156  RH  042%=      5-min Rain = 0
KSC1 140009Z 14010G15KT 30/16 A3002 RMK A01 T02970157  RH  043%=      5-min Rain = 0
KSC1 140010Z 14013KT 30/16 A3002 RMK A01 T02970157  RH  043%=      5-min Rain = 0
KSC1 140011Z 14009KT 30/16 A3002 RMK A01 T02960157  RH  043%=      5-min Rain = 0
KSC1 140012Z 13011KT 30/16 A3002 RMK A01 T02960157  RH  043%=      5-min Rain = 0
KSC1 140013Z 14012KT 30/16 A3002 RMK A01 T02960157  RH  043%=      5-min Rain = 0
KSC1 140014Z 14011KT 30/16 A3002 RMK A01 T02950157  RH  043%=      5-min Rain = 0
KSC1 140015Z 14010G17KT 30/16 A3002 RMK A01 T02950158  RH  043%=      5-min Rain = 0
KSC1 140016Z 14013G19KT 30/16 A3001 RMK A01 T02950156  RH  043%=      5-min Rain = 0
KSC1 140017Z 14012KT 30/16 A3001 RMK A01 T02950156  RH  043%=      5-min Rain = 0
KSC1 140018Z 15014KT 30/16 A3001 RMK A01 T02950156  RH  043%=      5-min Rain = 0
KSC1 140019Z 15010KT 30/16 A3001 RMK A01 T02950155  RH  043%=      5-min Rain = 0
KSC1 140020Z 13012KT 30/16 A3001 RMK A01 T02950155  RH  043%=      5-min Rain = 0
KSC1 140021Z 13011KT 30/16 A3001 RMK A01 T02950155  RH  043%=      5-min Rain = 0
KSC1 140022Z 14012KT 29/16 A3001 RMK A01 T02940155  RH  043%=      5-min Rain = 0
KSC1 140023Z 14012KT 29/16 A3001 RMK A01 T02940155  RH  043%=      5-min Rain = 0
KSC1 140024Z 14013KT 29/16 A3001 RMK A01 T02940155  RH  043%=      5-min Rain = 0
KSC1 140025Z 14010G16KT 29/16 A3001 RMK A01 T02940156  RH  043%=      5-min Rain = 0
KSC1 140026Z 15011G17KT 29/16 A3001 RMK A01 T02930156  RH  043%=      5-min Rain = 0
KSC1 140027Z 14010KT 29/16 A3001 RMK A01 T02930157  RH  044%=      5-min Rain = 0
KSC1 140028Z 15011KT 29/16 A3001 RMK A01 T02930157  RH  044%=      5-min Rain = 0
KSC1 140029Z 13009KT 29/16 A3001 RMK A01 T02920157  RH  044%=      5-min Rain = 0
KSC1 140030Z 14011KT 29/16 A3001 RMK A01 T02920157  RH  044%=      5-min Rain = 0
KSC1 140031Z 13010KT 29/16 A3001 RMK A01 T02920157  RH  044%=      5-min Rain = 0
KSC1 140032Z 14012G17KT 29/16 A3001 RMK A01 T02910157  RH  044%=      5-min Rain = 0
KSC1 140033Z 14010G15KT 29/16 A3001 RMK A01 T02910156  RH  044%=      5-min Rain = 0
KSC1 140034Z 14010KT 29/16 A3001 RMK A01 T02910157  RH  044%=      5-min Rain = 0
KSC1 140035Z 15011KT 29/16 A3001 RMK A01 T02910157  RH  044%=      5-min Rain = 0
KSC1 140036Z 14011KT 29/16 A3001 RMK A01 T02910157  RH  044%=      5-min Rain = 0
KSC1 140037Z 14009KT 29/16 A3001 RMK A01 T02900157  RH  045%=      5-min Rain = 0
KSC1 140038Z 14012KT 29/16 A3001 RMK A01 T02900158  RH  045%=      5-min Rain = 0
KSC1 140039Z 15011KT 29/16 A3001 RMK A01 T02900157  RH  045%=      5-min Rain = 0
KSC1 140040Z 13011KT 29/16 A3001 RMK A01 T02900157  RH  044%=      5-min Rain = 0
KSC1 140041Z 14011KT 29/16 A3001 RMK A01 T02900157  RH  044%=      5-min Rain = 0
KSC1 140042Z 14008KT 29/16 A3001 RMK A01 T02900157  RH  045%=      5-min Rain = 0
KSC1 140043Z 14008KT 29/16 A3002 RMK A01 T02890157  RH  045%=      5-min Rain = 0
KSC1 140044Z 14010KT 29/16 A3002 RMK A01 T02890158  RH  045%=      5-min Rain = 0
KSC1 140045Z 14011KT 29/16 A3001 RMK A01 T02890158  RH  045%=      5-min Rain = 0
KSC1 140046Z 14012KT 29/16 A3001 RMK A01 T02890157  RH  045%=      5-min Rain = 0
KSC1 140047Z 15010KT 29/16 A3001 RMK A01 T02890157  RH  045%=      5-min Rain = 0
KSC1 140048Z 14012KT 29/16 A3001 RMK A01 T02880157  RH  045%=      5-min Rain = 0
KSC1 140049Z 14011KT 29/16 A3001 RMK A01 T02880157  RH  045%=      5-min Rain = 0
KSC1 140050Z 14009KT 29/16 A3001 RMK A01 T02880157  RH  045%=      5-min Rain = 0
KSC1 140051Z 14009G14KT 29/16 A3001 RMK A01 T02880157  RH  045%=      5-min Rain = 0
KSC1 140052Z 14012KT 29/16 A3001 RMK A01 T02870157  RH  045%=      5-min Rain = 0
KSC1 140053Z 14008KT 29/16 A3001 RMK A01 T02870157  RH  045%=      5-min Rain = 0
KSC1 140054Z 13010KT 29/16 A3001 RMK A01 T02870157  RH  045%=      5-min Rain = 0
KSC1 140055Z 13011KT 29/16 A3001 RMK A01 T02870158  RH  045%=      5-min Rain = 0
KSC1 140056Z 14011KT 29/16 A3001 RMK A01 T02870158  RH  046%=      5-min Rain = 0
KSC1 140057Z 14012KT 29/16 A3001 RMK A01 T02860157  RH  046%=      5-min Rain = 0
KSC1 140058Z 14011KT 29/16 A3001 RMK A01 T02870158  RH  046%=      5-min Rain = 0
KSC1 140059Z 15012KT 29/16 A3001 RMK A01 T02870158  RH  046%=      5-min Rain = 0
KSC1 140100Z 14008KT 29/16 A3001 RMK A01 T02860158  RH  046%=      5-min Rain = 0
KSC1 140101Z 14011KT 29/16 A3001 RMK A01 T02860158  RH  046%=      5-min Rain = 0
KSC1 140102Z 14013KT 29/16 A3001 RMK A01 T02860158  RH  046%=      5-min Rain = 0
KSC1 140103Z 15009KT 29/16 A3001 RMK A01 T02860158  RH  046%=      5-min Rain = 0
KSC1 140104Z 14012KT 29/16 A3001 RMK A01 T02860158  RH  046%=      5-min Rain = 0
KSC1 140105Z 14010G15KT 29/16 A3001 RMK A01 T02850157  RH  046%=      5-min Rain = 0
KSC1 140106Z 13007KT 29/16 A3002 RMK A01 T02850158  RH  046%=      5-min Rain = 0
KSC1 140107Z 13009KT 28/16 A3002 RMK A01 T02840159  RH  046%=      5-min Rain = 0
KSC1 140108Z 13009KT 28/16 A3002 RMK A01 T02840159  RH  047%=      5-min Rain = 0
KSC1 140109Z 13012KT 28/16 A3001 RMK A01 T02830158  RH  047%=      5-min Rain = 0
KSC1 140110Z 13009KT 28/16 A3002 RMK A01 T02830159  RH  047%=      5-min Rain = 0
KSC1 140111Z 13007KT 28/16 A3002 RMK A01 T02830159  RH  047%=      5-min Rain = 0
KSC1 140112Z 13011KT 28/16 A3001 RMK A01 T02820159  RH  047%=      5-min Rain = 0
KSC1 140113Z 14011KT 28/16 A3002 RMK A01 T02820159  RH  047%=      5-min Rain = 0
KSC1 140114Z 13009KT 28/16 A3001 RMK A01 T02820159  RH  047%=      5-min Rain = 0
KSC1 140115Z 13010KT 28/16 A3001 RMK A01 T02810159  RH  047%=      5-min Rain = 0
KSC1 140116Z 13008KT 28/16 A3001 RMK A01 T02810159  RH  047%=      5-min Rain = 0
KSC1 140117Z 13011KT 28/16 A3001 RMK A01 T02800159  RH  048%=      5-min Rain = 0
KSC1 140118Z 13011KT 28/16 A3001 RMK A01 T02800159  RH  048%=      5-min Rain = 0
KSC1 140119Z 13009KT 28/16 A3001 RMK A01 T02800159  RH  048%=      5-min Rain = 0
KSC1 140120Z 13010KT 28/16 A3001 RMK A01 T02800159  RH  048%=      5-min Rain = 0
KSC1 140121Z 13010KT 28/16 A3001 RMK A01 T02800159  RH  048%=      5-min Rain = 0
KSC1 140122Z 13008KT 28/16 A3001 RMK A01 T02790159  RH  048%=      5-min Rain = 0
KSC1 140123Z 14010KT 28/16 A3001 RMK A01 T02790159  RH  048%=      5-min Rain = 0
KSC1 140124Z 14010KT 28/16 A3001 RMK A01 T02790159  RH  048%=      5-min Rain = 0
KSC1 140125Z 14011KT 28/16 A3001 RMK A01 T02790159  RH  048%=      5-min Rain = 0
KSC1 140126Z 14007KT 28/16 A3001 RMK A01 T02790159  RH  048%=      5-min Rain = 0
KSC1 140127Z 14006KT 28/16 A3001 RMK A01 T02780159  RH  048%=      5-min Rain = 0
KSC1 140128Z 14008KT 28/16 A3001 RMK A01 T02780159  RH  048%=      5-min Rain = 0
KSC1 140129Z 14008KT 28/16 A3001 RMK A01 T02770159  RH  049%=      5-min Rain = 0
KSC1 140130Z 13007KT 28/16 A3001 RMK A01 T02770160  RH  049%=      5-min Rain = 0
KSC1 140131Z 14006KT 28/16 A3001 RMK A01 T02760160  RH  049%=      5-min Rain = 0
KSC1 140132Z 13007KT 28/16 A3001 RMK A01 T02750160  RH  049%=      5-min Rain = 0
KSC1 140133Z 13008KT 28/16 A3001 RMK A01 T02750160  RH  049%=      5-min Rain = 0
KSC1 140134Z 14009KT 28/16 A3001 RMK A01 T02750160  RH  049%=      5-min Rain = 0
KSC1 140135Z 13007KT 28/16 A3001 RMK A01 T02750160  RH  050%=      5-min Rain = 0
KSC1 140136Z 13008KT 27/16 A3001 RMK A01 T02740160  RH  050%=      5-min Rain = 0
KSC1 140137Z 13009KT 27/16 A3001 RMK A01 T02740160  RH  050%=      5-min Rain = 0
KSC1 140138Z 13007KT 27/16 A3001 RMK A01 T02730160  RH  050%=      5-min Rain = 0
KSC1 140139Z 13008KT 27/16 A3001 RMK A01 T02730160  RH  050%=      5-min Rain = 0
KSC1 140140Z 13007KT 27/16 A3001 RMK A01 T02730160  RH  050%=      5-min Rain = 0
KSC1 140141Z 13006KT 27/16 A3001 RMK A01 T02720160  RH  050%=      5-min Rain = 0
KSC1 140142Z 13008KT 27/16 A3001 RMK A01 T02710160  RH  051%=      5-min Rain = 0
KSC1 140143Z 14008KT 27/16 A3001 RMK A01 T02710161  RH  051%=      5-min Rain = 0
KSC1 140144Z 14008KT 27/16 A3001 RMK A01 T02700161  RH  051%=      5-min Rain = 0
KSC1 140145Z 13008KT 27/16 A3001 RMK A01 T02710161  RH  051%=      5-min Rain = 0
KSC1 140146Z 14007KT 27/16 A3001 RMK A01 T02700160  RH  051%=      5-min Rain = 0
KSC1 140147Z 13008KT 27/16 A3001 RMK A01 T02710161  RH  051%=      5-min Rain = 0
KSC1 140148Z 14007G12KT 27/16 A3001 RMK A01 T02700161  RH  051%=      5-min Rain = 0
KSC1 140149Z 13006KT 27/16 A3001 RMK A01 T02700161  RH  051%=      5-min Rain = 0
KSC1 140150Z 14009KT 27/16 A3001 RMK A01 T02690161  RH  051%=      5-min Rain = 0
KSC1 140151Z 13007KT 27/16 A3001 RMK A01 T02690161  RH  052%=      5-min Rain = 0
KSC1 140152Z 14007KT 27/16 A3001 RMK A01 T02690161  RH  052%=      5-min Rain = 0
KSC1 140153Z 13009KT 27/16 A3001 RMK A01 T02690161  RH  052%=      5-min Rain = 0
KSC1 140154Z 14009KT 27/16 A3001 RMK A01 T02690161  RH  052%=      5-min Rain = 0
KSC1 140155Z 14010KT 27/16 A3001 RMK A01 T02690161  RH  052%=      5-min Rain = 0
KSC1 140156Z 14007G12KT 27/16 A3001 RMK A01 T02690161  RH  052%=      5-min Rain = 0
KSC1 140157Z 13006KT 27/16 A3001 RMK A01 T02690162  RH  052%=      5-min Rain = 0
KSC1 140158Z 14007KT 27/16 A3001 RMK A01 T02680162  RH  052%=      5-min Rain = 0
KSC1 140159Z 14008KT 27/16 A3001 RMK A01 T02680162  RH  052%=      5-min Rain = 0
KSC1 140200Z 14008KT 27/16 A3001 RMK A01 T02670161  RH  052%=      5-min Rain = 0
KSC1 140201Z 14006KT 27/16 A3001 RMK A01 T02670162  RH  052%=      5-min Rain = 0
KSC1 140202Z 14007KT 27/16 A3001 RMK A01 T02670162  RH  052%=      5-min Rain = 0
KSC1 140203Z 14008KT 27/16 A3001 RMK A01 T02670162  RH  053%=      5-min Rain = 0
KSC1 140204Z 14006KT 27/16 A3001 RMK A01 T02670162  RH  053%=      5-min Rain = 0
KSC1 140205Z 14007KT 27/16 A3001 RMK A01 T02660162  RH  053%=      5-min Rain = 0
KSC1 140206Z 15009KT 27/16 A3001 RMK A01 T02660162  RH  053%=      5-min Rain = 0
KSC1 140207Z 15010KT 27/16 A3001 RMK A01 T02660162  RH  053%=      5-min Rain = 0
KSC1 140208Z 15008KT 27/16 A3001 RMK A01 T02660162  RH  053%=      5-min Rain = 0
KSC1 140209Z 14007KT 27/16 A3001 RMK A01 T02660162  RH  053%=      5-min Rain = 0
KSC1 140210Z 13007KT 27/16 A3001 RMK A01 T02660162  RH  053%=      5-min Rain = 0
KSC1 140211Z 14007KT 27/16 A3001 RMK A01 T02660162  RH  053%=      5-min Rain = 0
KSC1 140212Z 14008KT 27/16 A3001 RMK A01 T02650163  RH  053%=      5-min Rain = 0
KSC1 140213Z 14007KT 27/16 A3001 RMK A01 T02650163  RH  053%=      5-min Rain = 0
KSC1 140214Z 14008KT 27/16 A3001 RMK A01 T02650162  RH  053%=      5-min Rain = 0
KSC1 140215Z 14006KT 27/16 A3001 RMK A01 T02650163  RH  053%=      5-min Rain = 0
KSC1 140216Z 14006G12KT 27/16 A3001 RMK A01 T02650163  RH  054%=      5-min Rain = 0
KSC1 140217Z 15010KT 26/16 A3001 RMK A01 T02640163  RH  054%=      5-min Rain = 0
KSC1 140218Z 14009KT 26/16 A3001 RMK A01 T02640163  RH  054%=      5-min Rain = 0
KSC1 140219Z 15011KT 27/16 A3001 RMK A01 T02650163  RH  054%=      5-min Rain = 0
KSC1 140220Z 14009KT 27/16 A3001 RMK A01 T02650163  RH  053%=      5-min Rain = 0
KSC1 140221Z 14008KT 27/16 A3001 RMK A01 T02650163  RH  053%=      5-min Rain = 0
KSC1 140222Z 14008KT 27/16 A3001 RMK A01 T02650163  RH  053%=      5-min Rain = 0
KSC1 140223Z 13008KT 27/16 A3001 RMK A01 T02650163  RH  053%=      5-min Rain = 0
KSC1 140224Z 14009KT 27/16 A3001 RMK A01 T02650163  RH  054%=      5-min Rain = 0
KSC1 140225Z 14010KT 26/16 A3001 RMK A01 T02640163  RH  054%=      5-min Rain = 0
KSC1 140226Z 14008KT 27/16 A3001 RMK A01 T02650163  RH  054%=      5-min Rain = 0
KSC1 140227Z 13008KT 27/16 A3001 RMK A01 T02650163  RH  054%=      5-min Rain = 0
KSC1 140228Z 15008KT 26/16 A3001 RMK A01 T02640163  RH  054%=      5-min Rain = 0
KSC1 140229Z 14008KT 26/16 A3001 RMK A01 T02630163  RH  054%=      5-min Rain = 0
KSC1 140230Z 14008KT 26/16 A3001 RMK A01 T02630163  RH  054%=      5-min Rain = 0
KSC1 140231Z 14008KT 26/16 A3001 RMK A01 T02630163  RH  054%=      5-min Rain = 0
KSC1 140232Z 14007KT 26/16 A3001 RMK A01 T02630163  RH  054%=      5-min Rain = 0
KSC1 140233Z 15007KT 26/16 A3001 RMK A01 T02620163  RH  054%=      5-min Rain = 0
KSC1 140234Z 14006KT 26/16 A3001 RMK A01 T02620163  RH  055%=      5-min Rain = 0
KSC1 140235Z 15009KT 26/16 A3001 RMK A01 T02620164  RH  055%=      5-min Rain = 0
KSC1 140236Z 15009KT 26/16 A3001 RMK A01 T02610163  RH  055%=      5-min Rain = 0
KSC1 140237Z 14008KT 26/16 A3001 RMK A01 T02610163  RH  055%=      5-min Rain = 0
KSC1 140238Z 15009G15KT 26/16 A3001 RMK A01 T02610163  RH  055%=      5-min Rain = 0
KSC1 140239Z 14010G15KT 26/16 A3001 RMK A01 T02610163  RH  055%=      5-min Rain = 0
KSC1 140240Z 15009G14KT 26/16 A3001 RMK A01 T02620163  RH  055%=      5-min Rain = 0
KSC1 140241Z 15009KT 26/16 A3001 RMK A01 T02620163  RH  055%=      5-min Rain = 0
KSC1 140242Z 15007KT 26/16 A3001 RMK A01 T02620163  RH  055%=      5-min Rain = 0
KSC1 140243Z 15010KT 26/16 A3001 RMK A01 T02620163  RH  055%=      5-min Rain = 0
KSC1 140244Z 14010G16KT 26/16 A3001 RMK A01 T02620163  RH  055%=      5-min Rain = 0
KSC1 140245Z 14010KT 26/16 A3001 RMK A01 T02620163  RH  054%=      5-min Rain = 0
KSC1 140246Z 14009KT 26/16 A3001 RMK A01 T02620163  RH  054%=      5-min Rain = 0
KSC1 140247Z 14011KT 26/16 A3001 RMK A01 T02620163  RH  054%=      5-min Rain = 0
KSC1 140248Z 15010KT 26/16 A3001 RMK A01 T02620163  RH  054%=      5-min Rain = 0
KSC1 140249Z 14008KT 26/16 A3001 RMK A01 T02620163  RH  054%=      5-min Rain = 0
KSC1 140250Z 15010KT 26/16 A3001 RMK A01 T02620163  RH  054%=      5-min Rain = 0
KSC1 140251Z 14009KT 26/16 A3001 RMK A01 T02620163  RH  054%=      5-min Rain = 0
KSC1 140252Z 14011KT 26/16 A3001 RMK A01 T02620163  RH  054%=      5-min Rain = 0
KSC1 140253Z 14008KT 26/16 A3001 RMK A01 T02620163  RH  054%=      5-min Rain = 0
KSC1 140254Z 14009KT 26/16 A3001 RMK A01 T02620163  RH  054%=      5-min Rain = 0
KSC1 140255Z 14012KT 26/16 A3001 RMK A01 T02620162  RH  054%=      5-min Rain = 0
KSC1 140256Z 14009G14KT 26/16 A3001 RMK A01 T02610162  RH  054%=      5-min Rain = 0
KSC1 140257Z 13008KT 26/16 A3001 RMK A01 T02620162  RH  054%=      5-min Rain = 0
KSC1 140258Z 14009KT 26/16 A3001 RMK A01 T02610163  RH  054%=      5-min Rain = 0
KSC1 140259Z 14007KT 26/16 A3001 RMK A01 T02610162  RH  054%=      5-min Rain = 0
KSC1 140300Z 14007KT 26/16 A3002 RMK A01 T02610163  RH  055%=      5-min Rain = 0
KSC1 140301Z 14008KT 26/16 A3002 RMK A01 T02600163  RH  055%=      5-min Rain = 0
KSC1 140302Z 14009KT 26/16 A3002 RMK A01 T02600162  RH  055%=      5-min Rain = 0
KSC1 140303Z 14008KT 26/16 A3002 RMK A01 T02600162  RH  055%=      5-min Rain = 0
KSC1 140304Z 15008KT 26/16 A3002 RMK A01 T02600163  RH  055%=      5-min Rain = 0
KSC1 140305Z 14010KT 26/16 A3002 RMK A01 T02600162  RH  055%=      5-min Rain = 0
KSC1 140306Z 15009KT 26/16 A3002 RMK A01 T02600162  RH  055%=      5-min Rain = 0
KSC1 140307Z 14011KT 26/16 A3001 RMK A01 T02600162  RH  055%=      5-min Rain = 0
KSC1 140308Z 14008KT 26/16 A3001 RMK A01 T02600162  RH  055%=      5-min Rain = 0
KSC1 140309Z 14007KT 26/16 A3001 RMK A01 T02600162  RH  055%=      5-min Rain = 0
KSC1 140310Z 15009KT 26/16 A3001 RMK A01 T02590162  RH  055%=      5-min Rain = 0
KSC1 140311Z 15010KT 26/16 A3002 RMK A01 T02590163  RH  055%=      5-min Rain = 0
KSC1 140312Z 15008KT 26/16 A3002 RMK A01 T02590162  RH  055%=      5-min Rain = 0
KSC1 140313Z 14008KT 26/16 A3002 RMK A01 T02590162  RH  055%=      5-min Rain = 0
KSC1 140314Z 15010KT 26/16 A3002 RMK A01 T02580162  RH  055%=      5-min Rain = 0
KSC1 140315Z 15009KT 26/16 A3002 RMK A01 T02580162  RH  055%=      5-min Rain = 0
KSC1 140316Z 15008KT 26/16 A3002 RMK A01 T02580162  RH  055%=      5-min Rain = 0
KSC1 140317Z 14008KT 26/16 A3002 RMK A01 T02580162  RH  055%=      5-min Rain = 0
KSC1 140318Z 14009KT 26/16 A3002 RMK A01 T02580162  RH  055%=      5-min Rain = 0
KSC1 140319Z 14007KT 26/16 A3002 RMK A01 T02580162  RH  055%=      5-min Rain = 0
KSC1 140320Z 14009KT 26/16 A3002 RMK A01 T02580162  RH  055%=      5-min Rain = 0
KSC1 140321Z 15009KT 26/16 A3002 RMK A01 T02580162  RH  055%=      5-min Rain = 0
KSC1 140322Z 14009KT 26/16 A3002 RMK A01 T02580162  RH  055%=      5-min Rain = 0
KSC1 140323Z 15010KT 26/16 A3002 RMK A01 T02580162  RH  055%=      5-min Rain = 0
KSC1 140324Z 15010KT 26/16 A3002 RMK A01 T02580162  RH  055%=      5-min Rain = 0
KSC1 140325Z 15008KT 26/16 A3002 RMK A01 T02580162  RH  055%=      5-min Rain = 0
KSC1 140326Z 15011KT 26/16 A3002 RMK A01 T02580162  RH  055%=      5-min Rain = 0
KSC1 140327Z 15009KT 26/16 A3002 RMK A01 T02580162  RH  055%=      5-min Rain = 0
KSC1 140328Z 15009KT 26/16 A3002 RMK A01 T02580162  RH  055%=      5-min Rain = 0
KSC1 140329Z 15012KT 26/16 A3002 RMK A01 T02580162  RH  055%=      5-min Rain = 0
KSC1 140330Z 15011KT 26/16 A3002 RMK A01 T02580162  RH  055%=      5-min Rain = 0
KSC1 140331Z 15011G16KT 26/16 A3002 RMK A01 T02580162  RH  055%=      5-min Rain = 0
KSC1 140332Z 14009G14KT 26/16 A3002 RMK A01 T02580162  RH  055%=      5-min Rain = 0
KSC1 140333Z 14011KT 26/16 A3002 RMK A01 T02580162  RH  055%=      5-min Rain = 0
KSC1 140334Z 15010KT 26/16 A3002 RMK A01 T02580162  RH  055%=      5-min Rain = 0
KSC1 140335Z 15010KT 26/16 A3002 RMK A01 T02580162  RH  055%=      5-min Rain = 0
KSC1 140336Z 15010KT 26/16 A3002 RMK A01 T02570162  RH  055%=      5-min Rain = 0
KSC1 140337Z 15011KT 26/16 A3002 RMK A01 T02570162  RH  056%=      5-min Rain = 0
KSC1 140338Z 16012KT 26/16 A3003 RMK A01 T02570162  RH  056%=      5-min Rain = 0
KSC1 140339Z 15009KT 26/16 A3003 RMK A01 T02570162  RH  056%=      5-min Rain = 0
KSC1 140340Z 15007KT 26/16 A3003 RMK A01 T02570162  RH  056%=      5-min Rain = 0
KSC1 140341Z 16009KT 26/16 A3003 RMK A01 T02570162  RH  056%=      5-min Rain = 0
KSC1 140342Z 14011KT 26/16 A3003 RMK A01 T02560162  RH  056%=      5-min Rain = 0
KSC1 140343Z 16009KT 26/16 A3003 RMK A01 T02560162  RH  056%=      5-min Rain = 0
KSC1 140344Z 16010KT 26/16 A3003 RMK A01 T02550162  RH  056%=      5-min Rain = 0
KSC1 140345Z 15009KT 26/16 A3003 RMK A01 T02550162  RH  056%=      5-min Rain = 0
KSC1 140346Z 15007KT 26/16 A3003 RMK A01 T02550162  RH  056%=      5-min Rain = 0
KSC1 140347Z 15008KT 25/16 A3003 RMK A01 T02540162  RH  057%=      5-min Rain = 0
KSC1 140348Z 15007KT 25/16 A3003 RMK A01 T02540162  RH  057%=      5-min Rain = 0
KSC1 140349Z 15010KT 25/16 A3003 RMK A01 T02530162  RH  057%=      5-min Rain = 0
KSC1 140350Z 15009KT 25/16 A3003 RMK A01 T02530162  RH  057%=      5-min Rain = 0
KSC1 140351Z 16010KT 25/16 A3003 RMK A01 T02530162  RH  057%=      5-min Rain = 0
KSC1 140352Z 15008KT 25/16 A3003 RMK A01 T02540162  RH  057%=      5-min Rain = 0
KSC1 140353Z 15008KT 25/16 A3003 RMK A01 T02530162  RH  057%=      5-min Rain = 0
KSC1 140354Z 15009KT 25/16 A3003 RMK A01 T02530162  RH  057%=      5-min Rain = 0
KSC1 140355Z 14010KT 25/16 A3003 RMK A01 T02530162  RH  057%=      5-min Rain = 0
KSC1 140356Z 14009KT 25/16 A3002 RMK A01 T02530162  RH  057%=      5-min Rain = 0
KSC1 140357Z 15008KT 25/16 A3002 RMK A01 T02530161  RH  057%=      5-min Rain = 0
KSC1 140358Z 15008KT 25/16 A3002 RMK A01 T02520162  RH  057%=      5-min Rain = 0
KSC1 140359Z 15008KT 25/16 A3002 RMK A01 T02530162  RH  057%=      5-min Rain = 0
KSC1 140400Z 14009KT 25/16 A3002 RMK A01 T02520161  RH  057%=      5-min Rain = 0
KSC1 140401Z 14008KT 25/16 A3003 RMK A01 T02530162  RH  057%=      5-min Rain = 0
KSC1 140402Z 15009KT 25/16 A3003 RMK A01 T02520162  RH  057%=      5-min Rain = 0
KSC1 140403Z 15010KT 25/16 A3003 RMK A01 T02520161  RH  057%=      5-min Rain = 0
KSC1 140404Z 15011KT 25/16 A3003 RMK A01 T02520161  RH  057%=      5-min Rain = 0
KSC1 140405Z 14010KT 25/16 A3003 RMK A01 T02530161  RH  057%=      5-min Rain = 0
KSC1 140406Z 14009KT 25/16 A3003 RMK A01 T02530161  RH  057%=      5-min Rain = 0
KSC1 140407Z 15011G17KT 25/16 A3003 RMK A01 T02530161  RH  057%=      5-min Rain = 0
KSC1 140408Z 15009KT 25/16 A3003 RMK A01 T02530161  RH  057%=      5-min Rain = 0
KSC1 140409Z 15008KT 25/16 A3003 RMK A01 T02530161  RH  057%=      5-min Rain = 0
KSC1 140410Z 15012KT 25/16 A3004 RMK A01 T02530161  RH  057%=      5-min Rain = 0
KSC1 140411Z 15009KT 25/16 A3004 RMK A01 T02530161  RH  057%=      5-min Rain = 0
KSC1 140412Z 16009KT 25/16 A3004 RMK A01 T02530161  RH  057%=      5-min Rain = 0
KSC1 140413Z 16012KT 25/16 A3004 RMK A01 T02520161  RH  057%=      5-min Rain = 0
KSC1 140414Z 17008KT 25/16 A3004 RMK A01 T02520160  RH  057%=      5-min Rain = 0
KSC1 140415Z 16011KT 25/16 A3004 RMK A01 T02520161  RH  057%=      5-min Rain = 0
KSC1 140416Z 16009KT 25/16 A3004 RMK A01 T02510161  RH  057%=      5-min Rain = 0
KSC1 140417Z 16011KT 25/16 A3004 RMK A01 T02510161  RH  057%=      5-min Rain = 0
KSC1 140418Z 16009KT 25/16 A3004 RMK A01 T02500161  RH  058%=      5-min Rain = 0
KSC1 140419Z 16008KT 25/16 A3004 RMK A01 T02500161  RH  058%=      5-min Rain = 0
KSC1 140420Z 16009G14KT 25/16 A3004 RMK A01 T02490161  RH  058%=      5-min Rain = 0
KSC1 140421Z 16010KT 25/16 A3004 RMK A01 T02490161  RH  058%=      5-min Rain = 0
KSC1 140422Z 15008KT 25/16 A3004 RMK A01 T02490161  RH  058%=      5-min Rain = 0
KSC1 140423Z 15010KT 25/16 A3004 RMK A01 T02490162  RH  058%=      5-min Rain = 0
KSC1 140424Z 15010KT 25/16 A3004 RMK A01 T02480161  RH  058%=      5-min Rain = 0
KSC1 140425Z 15008KT 25/16 A3004 RMK A01 T02480161  RH  058%=      5-min Rain = 0
KSC1 140426Z 16008KT 25/16 A3004 RMK A01 T02480161  RH  058%=      5-min Rain = 0
KSC1 140427Z 15009KT 25/16 A3005 RMK A01 T02480161  RH  059%=      5-min Rain = 0
KSC1 140428Z 15008KT 25/16 A3005 RMK A01 T02470161  RH  059%=      5-min Rain = 0
KSC1 140429Z 15009KT 25/16 A3005 RMK A01 T02470161  RH  059%=      5-min Rain = 0
KSC1 140430Z 15008KT 25/16 A3005 RMK A01 T02470162  RH  059%=      5-min Rain = 0
KSC1 140431Z 15008KT 25/16 A3005 RMK A01 T02460161  RH  059%=      5-min Rain = 0
KSC1 140432Z 16008KT 25/16 A3005 RMK A01 T02460161  RH  059%=      5-min Rain = 0
KSC1 140433Z 15009KT 25/16 A3005 RMK A01 T02460161  RH  059%=      5-min Rain = 0
KSC1 140434Z 16008KT 25/16 A3005 RMK A01 T02460161  RH  059%=      5-min Rain = 0
KSC1 140435Z 16007KT 25/16 A3005 RMK A01 T02450161  RH  059%=      5-min Rain = 0
KSC1 140436Z 16009KT 25/16 A3004 RMK A01 T02450161  RH  060%=      5-min Rain = 0
KSC1 140437Z 15008KT 25/16 A3005 RMK A01 T02450162  RH  060%=      5-min Rain = 0
KSC1 140438Z 15009KT 25/16 A3004 RMK A01 T02450161  RH  060%=      5-min Rain = 0
KSC1 140439Z 15009KT 25/16 A3004 RMK A01 T02450161  RH  060%=      5-min Rain = 0
KSC1 140440Z 15010KT 25/16 A3004 RMK A01 T02450161  RH  060%=      5-min Rain = 0
KSC1 140441Z 15009KT 25/16 A3004 RMK A01 T02450162  RH  060%=      5-min Rain = 0
KSC1 140442Z 15011KT 24/16 A3004 RMK A01 T02440161  RH  060%=      5-min Rain = 0
KSC1 140443Z 16009KT 24/16 A3004 RMK A01 T02440162  RH  060%=      5-min Rain = 0
KSC1 140444Z 16010KT 24/16 A3004 RMK A01 T02440162  RH  060%=      5-min Rain = 0
KSC1 140445Z 15009KT 24/16 A3004 RMK A01 T02440161  RH  060%=      5-min Rain = 0
KSC1 140446Z 15007KT 24/16 A3005 RMK A01 T02440161  RH  060%=      5-min Rain = 0
KSC1 140447Z 15008KT 24/16 A3005 RMK A01 T02440161  RH  060%=      5-min Rain = 0
KSC1 140448Z 15009KT 24/16 A3005 RMK A01 T02430161  RH  060%=      5-min Rain = 0
KSC1 140449Z 16008KT 24/16 A3005 RMK A01 T02430161  RH  060%=      5-min Rain = 0
KSC1 140450Z 16010KT 24/16 A3005 RMK A01 T02430161  RH  061%=      5-min Rain = 0
KSC1 140451Z 16009KT 24/16 A3005 RMK A01 T02420161  RH  061%=      5-min Rain = 0
KSC1 140452Z 16009KT 24/16 A3005 RMK A01 T02420161  RH  061%=      5-min Rain = 0
KSC1 140453Z 16009KT 24/16 A3005 RMK A01 T02420161  RH  061%=      5-min Rain = 0
KSC1 140454Z 16007KT 24/16 A3005 RMK A01 T02420161  RH  061%=      5-min Rain = 0
KSC1 140455Z 16007KT 24/16 A3005 RMK A01 T02420161  RH  061%=      5-min Rain = 0
KSC1 140456Z 16006KT 24/16 A3005 RMK A01 T02410161  RH  061%=      5-min Rain = 0
KSC1 140457Z 16008KT 24/16 A3005 RMK A01 T02400161  RH  061%=      5-min Rain = 0
KSC1 140458Z 16006KT 24/16 A3005 RMK A01 T02400161  RH  062%=      5-min Rain = 0
KSC1 140459Z 16009KT 24/16 A3005 RMK A01 T02390161  RH  062%=      5-min Rain = 0

Page generated in 0.1249 seconds.